Time,TemperatureF,DewpointF,PressureIn,WindDirection,WindDirectionDegrees,WindSpeedMPH,WindSpeedGustMPH,Humidity,HourlyPrecipIn,Conditions,Clouds,dailyrainin,SoftwareType,DateUTC
2013-04-26 00:00:00,33.7,27.6,30.28,WSW,241,0.0,0.0,78,0.00,,---,0.11,VWS V14.00,2013-04-26 04:00:00,
2013-04-26 00:01:00,33.7,27.6,30.28,WSW,241,0.0,0.0,78,0.00,,---,0.11,VWS V14.00,2013-04-26 04:01:00,
2013-04-26 00:06:00,33.5,27.7,30.28,WSW,241,0.0,0.0,79,0.00,,---,0.00,VWS V14.00,2013-04-26 04:06:00,
2013-04-26 00:11:00,33.4,27.6,30.28,WSW,241,0.0,0.0,79,0.00,,---,0.00,VWS V14.00,2013-04-26 04:11:00,
2013-04-26 00:16:00,33.1,27.3,30.28,WSW,241,0.0,0.0,79,0.00,,---,0.00,VWS V14.00,2013-04-26 04:16:00,
2013-04-26 00:21:00,32.9,27.1,30.28,WSW,241,0.0,0.0,79,0.00,,---,0.00,VWS V14.00,2013-04-26 04:21:00,
2013-04-26 00:26:00,32.8,27.0,30.28,WSW,241,0.0,0.0,79,0.00,,---,0.00,VWS V14.00,2013-04-26 04:26:00,
2013-04-26 00:31:00,32.7,27.2,30.29,WSW,241,0.0,0.0,80,0.00,,---,0.00,VWS V14.00,2013-04-26 04:31:00,
2013-04-26 00:32:00,32.7,27.2,30.29,WSW,241,0.0,0.0,80,0.00,,---,0.00,VWS V14.00,2013-04-26 04:32:00,
2013-04-26 00:36:00,32.5,27.0,30.29,WSW,241,0.0,0.0,80,0.00,,---,0.00,VWS V14.00,2013-04-26 04:36:00,
2013-04-26 00:37:00,32.5,27.0,30.29,WSW,241,0.0,0.0,80,0.00,,---,0.00,VWS V14.00,2013-04-26 04:37:00,
2013-04-26 00:42:00,32.4,27.2,30.29,WSW,241,0.0,0.0,81,0.00,,---,0.00,VWS V14.00,2013-04-26 04:42:00,
2013-04-26 00:47:00,32.4,27.5,30.29,WSW,241,0.0,0.0,82,0.00,,---,0.00,VWS V14.00,2013-04-26 04:47:00,
2013-04-26 00:52:00,32.4,27.5,30.29,WSW,241,0.0,0.0,82,0.00,,---,0.00,VWS V14.00,2013-04-26 04:52:00,
2013-04-26 00:57:00,32.2,27.6,30.29,WSW,241,0.0,0.0,83,0.00,,---,0.00,VWS V14.00,2013-04-26 04:57:00,
2013-04-26 01:02:00,32.1,27.5,30.29,WSW,241,0.0,0.0,83,0.00,,---,0.00,VWS V14.00,2013-04-26 05:02:00,
2013-04-26 01:07:00,32.1,27.8,30.29,WSW,241,0.0,0.0,84,0.00,,---,0.00,VWS V14.00,2013-04-26 05:07:00,
2013-04-26 01:12:00,31.9,27.6,30.29,WSW,241,0.0,0.0,84,0.00,,---,0.00,VWS V14.00,2013-04-26 05:12:00,
2013-04-26 01:13:00,31.9,27.6,30.29,WSW,241,0.0,0.0,84,0.00,,---,0.00,VWS V14.00,2013-04-26 05:13:00,
2013-04-26 01:17:00,31.9,27.6,30.30,WSW,241,0.0,0.0,84,0.00,,---,0.00,VWS V14.00,2013-04-26 05:17:00,
2013-04-26 01:18:00,31.8,27.5,30.30,WSW,241,0.0,0.0,84,0.00,,---,0.00,VWS V14.00,2013-04-26 05:18:00,
2013-04-26 01:22:00,31.8,27.5,30.30,WSW,241,0.0,0.0,84,0.00,,---,0.00,VWS V14.00,2013-04-26 05:22:00,
2013-04-26 01:23:00,31.8,27.5,30.30,WSW,241,0.0,0.0,84,0.00,,---,0.00,VWS V14.00,2013-04-26 05:23:00,
2013-04-26 01:27:00,31.6,27.6,30.30,WSW,241,0.0,0.0,85,0.00,,---,0.00,VWS V14.00,2013-04-26 05:27:00,
2013-04-26 01:28:00,31.6,27.6,30.30,WSW,241,0.0,0.0,85,0.00,,---,0.00,VWS V14.00,2013-04-26 05:28:00,
2013-04-26 01:32:00,31.5,27.5,30.31,WSW,241,0.0,0.0,85,0.00,,---,0.00,VWS V14.00,2013-04-26 05:32:00,
2013-04-26 01:33:00,31.5,27.5,30.31,WSW,241,0.0,0.0,85,0.00,,---,0.00,VWS V14.00,2013-04-26 05:33:00,
2013-04-26 01:38:00,31.3,27.3,30.31,WSW,241,0.0,0.0,85,0.00,,---,0.00,VWS V14.00,2013-04-26 05:38:00,
2013-04-26 01:39:00,31.3,27.3,30.31,WSW,241,0.0,0.0,85,0.00,,---,0.00,VWS V14.00,2013-04-26 05:39:00,
2013-04-26 01:43:00,31.3,27.3,30.31,WSW,241,0.0,0.0,85,0.00,,---,0.00,VWS V14.00,2013-04-26 05:43:00,
2013-04-26 01:44:00,31.3,27.3,30.31,SW,233,0.0,0.0,85,0.00,,---,0.00,VWS V14.00,2013-04-26 05:44:00,
2013-04-26 01:48:00,31.2,27.2,30.31,WSW,241,0.0,0.0,85,0.00,,---,0.00,VWS V14.00,2013-04-26 05:48:00,
2013-04-26 01:49:00,31.2,27.2,30.31,WSW,241,0.0,0.0,85,0.00,,---,0.00,VWS V14.00,2013-04-26 05:49:00,
2013-04-26 01:50:00,31.2,27.2,30.31,WSW,241,0.0,0.0,85,0.00,,---,0.00,VWS V14.00,2013-04-26 05:50:00,
2013-04-26 01:53:00,31.0,27.0,30.31,WSW,241,0.0,0.0,85,0.00,,---,0.00,VWS V14.00,2013-04-26 05:53:00,
2013-04-26 01:54:00,31.0,27.0,30.31,WSW,241,0.0,0.0,85,0.00,,---,0.00,VWS V14.00,2013-04-26 05:54:00,
2013-04-26 01:55:00,31.0,27.0,30.31,WSW,241,0.0,0.0,85,0.00,,---,0.00,VWS V14.00,2013-04-26 05:55:00,
2013-04-26 01:58:00,30.9,26.9,30.31,WSW,241,0.0,0.0,85,0.00,,---,0.00,VWS V14.00,2013-04-26 05:58:00,
2013-04-26 01:59:00,30.9,26.9,30.31,WSW,241,0.0,0.0,85,0.00,,---,0.00,VWS V14.00,2013-04-26 05:59:00,
2013-04-26 02:00:00,30.9,26.9,30.31,WSW,241,0.0,0.0,85,0.00,,---,0.00,VWS V14.00,2013-04-26 06:00:00,
2013-04-26 02:03:00,30.7,26.7,30.31,WSW,241,0.0,0.0,85,0.00,,---,0.00,VWS V14.00,2013-04-26 06:03:00,
2013-04-26 02:04:00,30.7,26.7,30.31,WSW,241,0.0,0.0,85,0.00,,---,0.00,VWS V14.00,2013-04-26 06:04:00,
2013-04-26 02:05:00,30.7,26.7,30.31,WSW,241,0.0,0.0,85,0.00,,---,0.00,VWS V14.00,2013-04-26 06:05:00,
2013-04-26 02:08:00,30.7,26.7,30.31,WSW,241,0.0,0.0,85,0.00,,---,0.00,VWS V14.00,2013-04-26 06:08:00,
2013-04-26 02:09:00,30.7,26.7,30.31,WSW,241,0.0,0.0,85,0.00,,---,0.00,VWS V14.00,2013-04-26 06:09:00,
2013-04-26 02:10:00,30.6,26.6,30.31,WSW,241,0.0,0.0,85,0.00,,---,0.00,VWS V14.00,2013-04-26 06:10:00,
2013-04-26 02:13:00,30.6,26.6,30.31,WSW,241,0.0,0.0,85,0.00,,---,0.00,VWS V14.00,2013-04-26 06:13:00,
2013-04-26 02:14:00,30.6,26.6,30.31,WSW,241,0.0,0.0,85,0.00,,---,0.00,VWS V14.00,2013-04-26 06:14:00,
2013-04-26 02:15:00,30.6,26.9,30.31,WSW,241,0.0,0.0,86,0.00,,---,0.00,VWS V14.00,2013-04-26 06:15:00,
2013-04-26 02:18:00,30.4,26.7,30.31,WSW,241,0.0,0.0,86,0.00,,---,0.00,VWS V14.00,2013-04-26 06:18:00,
2013-04-26 02:19:00,30.4,26.7,30.31,WSW,241,0.0,0.0,86,0.00,,---,0.00,VWS V14.00,2013-04-26 06:19:00,
2013-04-26 02:20:00,30.4,26.7,30.31,WSW,241,0.0,0.0,86,0.00,,---,0.00,VWS V14.00,2013-04-26 06:20:00,
2013-04-26 02:24:00,30.3,26.6,30.31,WSW,241,0.0,0.0,86,0.00,,---,0.00,VWS V14.00,2013-04-26 06:24:00,
2013-04-26 02:25:00,30.3,26.6,30.31,WSW,241,0.0,0.0,86,0.00,,---,0.00,VWS V14.00,2013-04-26 06:25:00,
2013-04-26 02:29:00,30.1,26.4,30.31,WSW,241,0.0,0.0,86,0.00,,---,0.00,VWS V14.00,2013-04-26 06:29:00,
2013-04-26 02:30:00,30.1,26.4,30.31,WSW,241,0.0,0.0,86,0.00,,---,0.00,VWS V14.00,2013-04-26 06:30:00,
2013-04-26 02:34:00,30.1,26.4,30.31,WSW,241,0.0,0.0,86,0.00,,---,0.00,VWS V14.00,2013-04-26 06:34:00,
2013-04-26 02:35:00,30.1,26.4,30.31,WSW,241,0.0,0.0,86,0.00,,---,0.00,VWS V14.00,2013-04-26 06:35:00,
2013-04-26 02:36:00,30.0,26.3,30.31,WSW,241,0.0,0.0,86,0.00,,---,0.00,VWS V14.00,2013-04-26 06:36:00,
2013-04-26 02:39:00,30.0,26.3,30.31,WSW,241,0.0,0.0,86,0.00,,---,0.00,VWS V14.00,2013-04-26 06:39:00,
2013-04-26 02:40:00,30.0,26.3,30.31,WSW,241,0.0,0.0,86,0.00,,---,0.00,VWS V14.00,2013-04-26 06:40:00,
2013-04-26 02:41:00,30.0,26.3,30.31,WSW,241,0.0,0.0,86,0.00,,---,0.00,VWS V14.00,2013-04-26 06:41:00,
2013-04-26 02:44:00,30.0,26.3,30.31,WSW,241,0.0,0.0,86,0.00,,---,0.00,VWS V14.00,2013-04-26 06:44:00,
2013-04-26 02:45:00,30.0,26.3,30.31,WSW,241,0.0,0.0,86,0.00,,---,0.00,VWS V14.00,2013-04-26 06:45:00,
2013-04-26 02:46:00,30.0,26.3,30.31,WSW,241,0.0,0.0,86,0.00,,---,0.00,VWS V14.00,2013-04-26 06:46:00,
2013-04-26 02:49:00,29.8,26.1,30.31,WSW,241,0.0,0.0,86,0.00,,---,0.00,VWS V14.00,2013-04-26 06:49:00,
2013-04-26 02:50:00,29.8,26.1,30.31,WSW,241,0.0,0.0,86,0.00,,---,0.00,VWS V14.00,2013-04-26 06:50:00,
2013-04-26 02:51:00,29.8,26.1,30.31,WSW,241,0.0,0.0,86,0.00,,---,0.00,VWS V14.00,2013-04-26 06:51:00,
2013-04-26 02:54:00,29.8,26.1,30.31,SW,233,0.0,0.0,86,0.00,,---,0.00,VWS V14.00,2013-04-26 06:54:00,
2013-04-26 02:55:00,29.8,26.1,30.31,WSW,241,0.0,0.0,86,0.00,,---,0.00,VWS V14.00,2013-04-26 06:55:00,
2013-04-26 02:56:00,29.8,26.1,30.31,WSW,241,0.0,0.0,86,0.00,,---,0.00,VWS V14.00,2013-04-26 06:56:00,
2013-04-26 02:59:00,29.7,26.0,30.31,WSW,241,0.0,0.0,86,0.00,,---,0.00,VWS V14.00,2013-04-26 06:59:00,
2013-04-26 03:00:00,29.7,26.0,30.30,WSW,241,0.0,0.0,86,0.00,,---,0.00,VWS V14.00,2013-04-26 07:00:00,
2013-04-26 03:01:00,29.7,26.0,30.30,WSW,241,0.0,0.0,86,0.00,,---,0.00,VWS V14.00,2013-04-26 07:01:00,
2013-04-26 03:05:00,29.5,25.8,30.30,WSW,241,0.0,0.0,86,0.00,,---,0.00,VWS V14.00,2013-04-26 07:05:00,
2013-04-26 03:06:00,29.5,25.8,30.30,WSW,241,0.0,0.0,86,0.00,,---,0.00,VWS V14.00,2013-04-26 07:06:00,
2013-04-26 03:10:00,29.5,25.8,30.30,WSW,241,0.0,0.0,86,0.00,,---,0.00,VWS V14.00,2013-04-26 07:10:00,
2013-04-26 03:11:00,29.5,25.8,30.30,WSW,241,0.0,0.0,86,0.00,,---,0.00,VWS V14.00,2013-04-26 07:11:00,
2013-04-26 03:15:00,29.4,25.7,30.30,WSW,241,0.0,0.0,86,0.00,,---,0.00,VWS V14.00,2013-04-26 07:15:00,
2013-04-26 03:16:00,29.4,25.7,30.30,WSW,241,0.0,0.0,86,0.00,,---,0.00,VWS V14.00,2013-04-26 07:16:00,
2013-04-26 03:20:00,29.4,25.7,30.30,WSW,241,0.0,0.0,86,0.00,,---,0.00,VWS V14.00,2013-04-26 07:20:00,
2013-04-26 03:21:00,29.3,25.6,30.30,WSW,241,0.0,0.0,86,0.00,,---,0.00,VWS V14.00,2013-04-26 07:21:00,
2013-04-26 03:25:00,29.3,25.6,30.30,WSW,241,0.0,0.0,86,0.00,,---,0.00,VWS V14.00,2013-04-26 07:25:00,
2013-04-26 03:26:00,29.3,25.6,30.30,WSW,241,0.0,0.0,86,0.00,,---,0.00,VWS V14.00,2013-04-26 07:26:00,
2013-04-26 03:27:00,29.3,25.6,30.30,WSW,241,0.0,0.0,86,0.00,,---,0.00,VWS V14.00,2013-04-26 07:27:00,
2013-04-26 03:30:00,29.1,25.4,30.30,WSW,241,0.0,0.0,86,0.00,,---,0.00,VWS V14.00,2013-04-26 07:30:00,
2013-04-26 03:31:00,29.1,25.4,30.30,WSW,241,0.0,0.0,86,0.00,,---,0.00,VWS V14.00,2013-04-26 07:31:00,
2013-04-26 03:32:00,29.1,25.4,30.30,WSW,241,0.0,0.0,86,0.00,,---,0.00,VWS V14.00,2013-04-26 07:32:00,
2013-04-26 03:35:00,29.1,25.4,30.30,WSW,241,0.0,0.0,86,0.00,,---,0.00,VWS V14.00,2013-04-26 07:35:00,
2013-04-26 03:36:00,29.1,25.4,30.30,WSW,241,0.0,0.0,86,0.00,,---,0.00,VWS V14.00,2013-04-26 07:36:00,
2013-04-26 03:37:00,29.1,25.4,30.30,WSW,241,0.0,0.0,86,0.00,,---,0.00,VWS V14.00,2013-04-26 07:37:00,
2013-04-26 03:41:00,29.0,25.4,30.30,WSW,241,0.0,0.0,86,0.00,,---,0.00,VWS V14.00,2013-04-26 07:41:00,
2013-04-26 03:42:00,29.0,25.4,30.30,WSW,241,0.0,0.0,86,0.00,,---,0.00,VWS V14.00,2013-04-26 07:42:00,
2013-04-26 03:46:00,29.0,25.4,30.30,WSW,241,0.0,0.0,86,0.00,,---,0.00,VWS V14.00,2013-04-26 07:46:00,
2013-04-26 03:47:00,29.0,25.4,30.30,WSW,241,0.0,0.0,86,0.00,,---,0.00,VWS V14.00,2013-04-26 07:47:00,
2013-04-26 03:48:00,28.8,25.1,30.30,WSW,241,0.0,0.0,86,0.00,,---,0.00,VWS V14.00,2013-04-26 07:48:00,
2013-04-26 03:51:00,28.8,25.1,30.30,WSW,241,0.0,0.0,86,0.00,,---,0.00,VWS V14.00,2013-04-26 07:51:00,
2013-04-26 03:52:00,28.8,25.1,30.30,WSW,241,0.0,0.0,86,0.00,,---,0.00,VWS V14.00,2013-04-26 07:52:00,
2013-04-26 03:53:00,28.8,25.1,30.30,WSW,241,0.0,0.0,86,0.00,,---,0.00,VWS V14.00,2013-04-26 07:53:00,
2013-04-26 03:56:00,28.8,25.4,30.30,WSW,241,0.0,0.0,87,0.00,,---,0.00,VWS V14.00,2013-04-26 07:56:00,
2013-04-26 03:57:00,28.7,25.3,30.30,WSW,241,0.0,0.0,87,0.00,,---,0.00,VWS V14.00,2013-04-26 07:57:00,
2013-04-26 03:58:00,28.7,25.3,30.30,WSW,241,0.0,0.0,87,0.00,,---,0.00,VWS V14.00,2013-04-26 07:58:00,
2013-04-26 04:01:00,28.7,25.3,30.30,WSW,241,0.0,0.0,87,0.00,,---,0.00,VWS V14.00,2013-04-26 08:01:00,
2013-04-26 04:02:00,28.7,25.3,30.30,WSW,241,0.0,0.0,87,0.00,,---,0.00,VWS V14.00,2013-04-26 08:02:00,
2013-04-26 04:03:00,28.7,25.3,30.30,WSW,241,0.0,0.0,87,0.00,,---,0.00,VWS V14.00,2013-04-26 08:03:00,
2013-04-26 04:06:00,28.7,25.3,30.30,WSW,241,0.0,0.0,87,0.00,,---,0.00,VWS V14.00,2013-04-26 08:06:00,
2013-04-26 04:07:00,28.7,25.3,30.30,WSW,241,0.0,0.0,87,0.00,,---,0.00,VWS V14.00,2013-04-26 08:07:00,
2013-04-26 04:08:00,28.5,25.1,30.30,WSW,241,0.0,0.0,87,0.00,,---,0.00,VWS V14.00,2013-04-26 08:08:00,
2013-04-26 04:11:00,28.5,25.1,30.30,WSW,241,0.0,0.0,87,0.00,,---,0.00,VWS V14.00,2013-04-26 08:11:00,
2013-04-26 04:12:00,28.5,25.1,30.30,WSW,241,0.0,0.0,87,0.00,,---,0.00,VWS V14.00,2013-04-26 08:12:00,
2013-04-26 04:13:00,28.5,25.1,30.30,WSW,241,0.0,0.0,87,0.00,,---,0.00,VWS V14.00,2013-04-26 08:13:00,
2013-04-26 04:17:00,28.5,25.1,30.30,WSW,241,0.0,0.0,87,0.00,,---,0.00,VWS V14.00,2013-04-26 08:17:00,
2013-04-26 04:18:00,28.5,25.1,30.30,WSW,241,0.0,0.0,87,0.00,,---,0.00,VWS V14.00,2013-04-26 08:18:00,
2013-04-26 04:22:00,28.4,25.0,30.30,WSW,241,0.0,0.0,87,0.00,,---,0.00,VWS V14.00,2013-04-26 08:22:00,
2013-04-26 04:23:00,28.4,25.0,30.30,WSW,241,0.0,0.0,87,0.00,,---,0.00,VWS V14.00,2013-04-26 08:23:00,
2013-04-26 04:24:00,28.4,25.0,30.30,WSW,241,0.0,0.0,87,0.00,,---,0.00,VWS V14.00,2013-04-26 08:24:00,
2013-04-26 04:27:00,28.4,25.0,30.30,WSW,241,0.0,0.0,87,0.00,,---,0.00,VWS V14.00,2013-04-26 08:27:00,
2013-04-26 04:28:00,28.4,25.0,30.30,WSW,241,0.0,0.0,87,0.00,,---,0.00,VWS V14.00,2013-04-26 08:28:00,
2013-04-26 04:29:00,28.4,25.0,30.30,WSW,241,0.0,0.0,87,0.00,,---,0.00,VWS V14.00,2013-04-26 08:29:00,
2013-04-26 04:32:00,28.2,24.8,30.31,WSW,241,0.0,0.0,87,0.00,,---,0.00,VWS V14.00,2013-04-26 08:32:00,
2013-04-26 04:33:00,28.2,24.8,30.31,WSW,241,0.0,0.0,87,0.00,,---,0.00,VWS V14.00,2013-04-26 08:33:00,
2013-04-26 04:34:00,28.2,24.8,30.31,WSW,241,0.0,0.0,87,0.00,,---,0.00,VWS V14.00,2013-04-26 08:34:00,
2013-04-26 04:37:00,28.2,24.8,30.31,WSW,241,0.0,0.0,87,0.00,,---,0.00,VWS V14.00,2013-04-26 08:37:00,
2013-04-26 04:38:00,28.2,24.8,30.31,WSW,241,0.0,0.0,87,0.00,,---,0.00,VWS V14.00,2013-04-26 08:38:00,
2013-04-26 04:39:00,28.2,24.8,30.31,WSW,241,0.0,0.0,87,0.00,,---,0.00,VWS V14.00,2013-04-26 08:39:00,
2013-04-26 04:42:00,28.2,24.8,30.31,WSW,241,0.0,0.0,87,0.00,,---,0.00,VWS V14.00,2013-04-26 08:42:00,
2013-04-26 04:43:00,28.2,24.8,30.31,WSW,241,0.0,0.0,87,0.00,,---,0.00,VWS V14.00,2013-04-26 08:43:00,
2013-04-26 04:44:00,28.2,24.8,30.31,WSW,241,0.0,0.0,87,0.00,,---,0.00,VWS V14.00,2013-04-26 08:44:00,
2013-04-26 04:47:00,28.2,24.8,30.31,WSW,241,0.0,0.0,87,0.00,,---,0.00,VWS V14.00,2013-04-26 08:47:00,
2013-04-26 04:48:00,28.2,24.8,30.31,WSW,241,0.0,0.0,87,0.00,,---,0.00,VWS V14.00,2013-04-26 08:48:00,
2013-04-26 04:49:00,28.2,25.1,30.31,WSW,241,0.0,0.0,88,0.00,,---,0.00,VWS V14.00,2013-04-26 08:49:00,
2013-04-26 04:53:00,28.2,25.1,30.31,WSW,241,0.0,0.0,88,0.00,,---,0.00,VWS V14.00,2013-04-26 08:53:00,
2013-04-26 04:54:00,28.1,25.0,30.31,WSW,241,0.0,0.0,88,0.00,,---,0.00,VWS V14.00,2013-04-26 08:54:00,
2013-04-26 04:58:00,28.1,25.0,30.31,WSW,241,0.0,0.0,88,0.00,,---,0.00,VWS V14.00,2013-04-26 08:58:00,
2013-04-26 04:59:00,28.1,25.0,30.31,WSW,241,0.0,0.0,88,0.00,,---,0.00,VWS V14.00,2013-04-26 08:59:00,
2013-04-26 05:03:00,28.1,25.0,30.32,WSW,241,0.0,0.0,88,0.00,,---,0.00,VWS V14.00,2013-04-26 09:03:00,
2013-04-26 05:04:00,28.1,25.0,30.32,WSW,241,0.0,0.0,88,0.00,,---,0.00,VWS V14.00,2013-04-26 09:04:00,
2013-04-26 05:05:00,28.1,25.0,30.32,WSW,241,0.0,0.0,88,0.00,,---,0.00,VWS V14.00,2013-04-26 09:05:00,
2013-04-26 05:08:00,28.1,25.0,30.32,WSW,241,0.0,0.0,88,0.00,,---,0.00,VWS V14.00,2013-04-26 09:08:00,
2013-04-26 05:09:00,28.1,25.0,30.32,WSW,241,0.0,0.0,88,0.00,,---,0.00,VWS V14.00,2013-04-26 09:09:00,
2013-04-26 05:10:00,28.1,25.0,30.32,WSW,241,0.0,0.0,88,0.00,,---,0.00,VWS V14.00,2013-04-26 09:10:00,
2013-04-26 05:13:00,28.1,25.0,30.32,WSW,241,0.0,0.0,88,0.00,,---,0.00,VWS V14.00,2013-04-26 09:13:00,
2013-04-26 05:14:00,28.1,25.0,30.32,WSW,241,0.0,0.0,88,0.00,,---,0.00,VWS V14.00,2013-04-26 09:14:00,
2013-04-26 05:15:00,28.1,25.0,30.32,WSW,241,0.0,0.0,88,0.00,,---,0.00,VWS V14.00,2013-04-26 09:15:00,
2013-04-26 05:19:00,28.1,25.0,30.32,WSW,241,0.0,0.0,88,0.00,,---,0.00,VWS V14.00,2013-04-26 09:19:00,
2013-04-26 05:20:00,28.1,25.0,30.32,WSW,241,0.0,0.0,88,0.00,,---,0.00,VWS V14.00,2013-04-26 09:20:00,
2013-04-26 05:24:00,27.9,24.8,30.32,WSW,241,0.0,0.0,88,0.00,,---,0.00,VWS V14.00,2013-04-26 09:24:00,
2013-04-26 05:25:00,27.9,24.8,30.32,WSW,241,0.0,0.0,88,0.00,,---,0.00,VWS V14.00,2013-04-26 09:25:00,
2013-04-26 05:29:00,27.9,24.8,30.32,WSW,241,0.0,0.0,88,0.00,,---,0.00,VWS V14.00,2013-04-26 09:29:00,
2013-04-26 05:30:00,27.9,24.8,30.32,WSW,241,0.0,0.0,88,0.00,,---,0.00,VWS V14.00,2013-04-26 09:30:00,
2013-04-26 05:31:00,27.9,24.8,30.32,WSW,241,0.0,0.0,88,0.00,,---,0.00,VWS V14.00,2013-04-26 09:31:00,
2013-04-26 05:34:00,27.8,24.7,30.32,WSW,241,0.0,0.0,88,0.00,,---,0.00,VWS V14.00,2013-04-26 09:34:00,
2013-04-26 05:35:00,27.8,24.7,30.32,WSW,241,0.0,0.0,88,0.00,,---,0.00,VWS V14.00,2013-04-26 09:35:00,
2013-04-26 05:37:00,27.8,24.7,30.32,WSW,241,0.0,0.0,88,0.00,,---,0.00,VWS V14.00,2013-04-26 09:37:00,
2013-04-26 05:39:00,27.8,24.7,30.32,WSW,241,0.0,0.0,88,0.00,,---,0.00,VWS V14.00,2013-04-26 09:39:00,
2013-04-26 05:40:00,27.8,24.7,30.32,WSW,241,0.0,0.0,88,0.00,,---,0.00,VWS V14.00,2013-04-26 09:40:00,
2013-04-26 05:42:00,27.8,24.7,30.32,WSW,241,0.0,0.0,88,0.00,,---,0.00,VWS V14.00,2013-04-26 09:42:00,
2013-04-26 05:44:00,27.8,24.7,30.32,WSW,241,0.0,0.0,88,0.00,,---,0.00,VWS V14.00,2013-04-26 09:44:00,
2013-04-26 05:45:00,27.6,24.5,30.32,WSW,241,0.0,0.0,88,0.00,,---,0.00,VWS V14.00,2013-04-26 09:45:00,
2013-04-26 05:47:00,27.6,24.5,30.32,WSW,241,0.0,0.0,88,0.00,,---,0.00,VWS V14.00,2013-04-26 09:47:00,
2013-04-26 05:49:00,27.6,24.5,30.32,WSW,241,0.0,0.0,88,0.00,,---,0.00,VWS V14.00,2013-04-26 09:49:00,
2013-04-26 05:50:00,27.6,24.5,30.32,WSW,241,0.0,0.0,88,0.00,,---,0.00,VWS V14.00,2013-04-26 09:50:00,
2013-04-26 05:52:00,27.6,24.5,30.32,WSW,241,0.0,0.0,88,0.00,,---,0.00,VWS V14.00,2013-04-26 09:52:00,
2013-04-26 05:54:00,27.6,24.5,30.32,WSW,241,0.0,0.0,88,0.00,,---,0.00,VWS V14.00,2013-04-26 09:54:00,
2013-04-26 05:55:00,27.6,24.5,30.32,WSW,241,0.0,0.0,88,0.00,,---,0.00,VWS V14.00,2013-04-26 09:55:00,
2013-04-26 05:56:00,27.6,24.5,30.32,WSW,241,0.0,0.0,88,0.00,,---,0.00,VWS V14.00,2013-04-26 09:56:00,
2013-04-26 05:57:00,27.6,24.8,30.32,WSW,241,0.0,0.0,89,0.00,,---,0.00,VWS V14.00,2013-04-26 09:57:00,
2013-04-26 05:59:00,27.6,24.8,30.32,WSW,241,0.0,0.0,89,0.00,,---,0.00,VWS V14.00,2013-04-26 09:59:00,
2013-04-26 06:00:00,27.6,24.8,30.32,WSW,241,0.0,0.0,89,0.00,,---,0.00,VWS V14.00,2013-04-26 10:00:00,
2013-04-26 06:01:00,27.6,24.8,30.33,WSW,241,0.0,0.0,89,0.00,,---,0.00,VWS V14.00,2013-04-26 10:01:00,
2013-04-26 06:02:00,27.6,24.8,30.33,WSW,241,0.0,0.0,89,0.00,,---,0.00,VWS V14.00,2013-04-26 10:02:00,
2013-04-26 06:05:00,27.6,24.8,30.33,WSW,241,0.0,0.0,89,0.00,,---,0.00,VWS V14.00,2013-04-26 10:05:00,
2013-04-26 06:06:00,27.6,24.8,30.33,WSW,241,0.0,0.0,89,0.00,,---,0.00,VWS V14.00,2013-04-26 10:06:00,
2013-04-26 06:07:00,27.6,24.8,30.33,WSW,241,0.0,0.0,89,0.00,,---,0.00,VWS V14.00,2013-04-26 10:07:00,
2013-04-26 06:10:00,27.6,24.8,30.33,WSW,241,0.0,0.0,89,0.00,,---,0.00,VWS V14.00,2013-04-26 10:10:00,
2013-04-26 06:11:00,27.8,25.0,30.33,WSW,241,0.0,0.0,89,0.00,,---,0.00,VWS V14.00,2013-04-26 10:11:00,
2013-04-26 06:12:00,27.8,25.0,30.33,WSW,241,0.0,0.0,89,0.00,,---,0.00,VWS V14.00,2013-04-26 10:12:00,
2013-04-26 06:15:00,27.8,25.0,30.33,WSW,241,0.0,0.0,89,0.00,,---,0.00,VWS V14.00,2013-04-26 10:15:00,
2013-04-26 06:16:00,27.8,25.0,30.34,WSW,241,0.0,0.0,89,0.00,,---,0.00,VWS V14.00,2013-04-26 10:16:00,
2013-04-26 06:18:00,27.8,25.0,30.34,WSW,241,0.0,0.0,89,0.00,,---,0.00,VWS V14.00,2013-04-26 10:18:00,
2013-04-26 06:20:00,27.8,25.0,30.34,WSW,241,0.0,0.0,89,0.00,,---,0.00,VWS V14.00,2013-04-26 10:20:00,
2013-04-26 06:21:00,27.8,25.0,30.34,WSW,241,0.0,0.0,89,0.00,,---,0.00,VWS V14.00,2013-04-26 10:21:00,
2013-04-26 06:23:00,27.8,25.0,30.34,WSW,241,0.0,0.0,89,0.00,,---,0.00,VWS V14.00,2013-04-26 10:23:00,
2013-04-26 06:25:00,27.8,25.0,30.34,WSW,241,0.0,0.0,89,0.00,,---,0.00,VWS V14.00,2013-04-26 10:25:00,
2013-04-26 06:26:00,27.8,25.0,30.34,WSW,241,0.0,0.0,89,0.00,,---,0.00,VWS V14.00,2013-04-26 10:26:00,
2013-04-26 06:28:00,27.8,25.0,30.34,WSW,241,0.0,0.0,89,0.00,,---,0.00,VWS V14.00,2013-04-26 10:28:00,
2013-04-26 06:30:00,27.8,25.0,30.34,WSW,241,0.0,0.0,89,0.00,,---,0.00,VWS V14.00,2013-04-26 10:30:00,
2013-04-26 06:31:00,27.8,25.0,30.34,WSW,241,0.0,0.0,89,0.00,,---,0.00,VWS V14.00,2013-04-26 10:31:00,
2013-04-26 06:33:00,27.8,25.0,30.34,WSW,241,0.0,0.0,89,0.00,,---,0.00,VWS V14.00,2013-04-26 10:33:00,
2013-04-26 06:35:00,27.8,25.0,30.34,WSW,241,0.0,0.0,89,0.00,,---,0.00,VWS V14.00,2013-04-26 10:35:00,
2013-04-26 06:36:00,27.8,25.0,30.34,WSW,241,0.0,0.0,89,0.00,,---,0.00,VWS V14.00,2013-04-26 10:36:00,
2013-04-26 06:38:00,27.8,25.0,30.34,WSW,241,0.0,0.0,89,0.00,,---,0.00,VWS V14.00,2013-04-26 10:38:00,
2013-04-26 06:40:00,27.8,25.0,30.34,WSW,241,0.0,0.0,89,0.00,,---,0.00,VWS V14.00,2013-04-26 10:40:00,
2013-04-26 06:41:00,27.8,25.0,30.34,WSW,241,0.0,0.0,89,0.00,,---,0.00,VWS V14.00,2013-04-26 10:41:00,
2013-04-26 06:43:00,27.6,24.8,30.34,WSW,241,0.0,0.0,89,0.00,,---,0.00,VWS V14.00,2013-04-26 10:43:00,
2013-04-26 06:45:00,27.6,24.8,30.34,WSW,241,0.0,0.0,89,0.00,,---,0.00,VWS V14.00,2013-04-26 10:45:00,
2013-04-26 06:46:00,27.6,24.8,30.34,WSW,241,0.0,0.0,89,0.00,,---,0.00,VWS V14.00,2013-04-26 10:46:00,
2013-04-26 06:47:00,27.6,24.8,30.34,WSW,241,0.0,0.0,89,0.00,,---,0.00,VWS V14.00,2013-04-26 10:47:00,
2013-04-26 06:48:00,27.6,24.8,30.34,WSW,241,0.0,0.0,89,0.00,,---,0.00,VWS V14.00,2013-04-26 10:48:00,
2013-04-26 06:50:00,27.6,24.8,30.34,WSW,241,0.0,0.0,89,0.00,,---,0.00,VWS V14.00,2013-04-26 10:50:00,
2013-04-26 06:51:00,27.8,25.0,30.34,WSW,241,0.0,0.0,89,0.00,,---,0.00,VWS V14.00,2013-04-26 10:51:00,
2013-04-26 06:52:00,27.8,25.0,30.34,WSW,241,0.0,0.0,89,0.00,,---,0.00,VWS V14.00,2013-04-26 10:52:00,
2013-04-26 06:53:00,27.8,25.0,30.34,WSW,241,0.0,0.0,89,0.00,,---,0.00,VWS V14.00,2013-04-26 10:53:00,
2013-04-26 06:55:00,27.6,25.1,30.34,WSW,241,0.0,0.0,90,0.00,,---,0.00,VWS V14.00,2013-04-26 10:55:00,
2013-04-26 06:56:00,27.6,25.1,30.34,WSW,241,0.0,0.0,90,0.00,,---,0.00,VWS V14.00,2013-04-26 10:56:00,
2013-04-26 06:57:00,27.6,25.1,30.34,WSW,241,0.0,0.0,90,0.00,,---,0.00,VWS V14.00,2013-04-26 10:57:00,
2013-04-26 06:58:00,27.6,25.1,30.34,WSW,241,0.0,0.0,90,0.00,,---,0.00,VWS V14.00,2013-04-26 10:58:00,
2013-04-26 07:00:00,27.6,25.1,30.35,WSW,241,0.0,0.0,90,0.00,,---,0.00,VWS V14.00,2013-04-26 11:00:00,
2013-04-26 07:01:00,27.6,25.1,30.35,WSW,241,0.0,0.0,90,0.00,,---,0.00,VWS V14.00,2013-04-26 11:01:00,
2013-04-26 07:02:00,27.6,25.1,30.35,WSW,241,0.0,0.0,90,0.00,,---,0.00,VWS V14.00,2013-04-26 11:02:00,
2013-04-26 07:04:00,27.6,25.1,30.35,WSW,241,0.0,0.0,90,0.00,,---,0.00,VWS V14.00,2013-04-26 11:04:00,
2013-04-26 07:06:00,27.6,25.1,30.35,WSW,241,0.0,0.0,90,0.00,,---,0.00,VWS V14.00,2013-04-26 11:06:00,
2013-04-26 07:07:00,27.6,25.1,30.35,WSW,241,0.0,0.0,90,0.00,,---,0.00,VWS V14.00,2013-04-26 11:07:00,
2013-04-26 07:09:00,27.6,25.1,30.35,WSW,241,0.0,0.0,90,0.00,,---,0.00,VWS V14.00,2013-04-26 11:09:00,
2013-04-26 07:11:00,27.8,25.2,30.35,WSW,241,0.0,0.0,90,0.00,,---,0.00,VWS V14.00,2013-04-26 11:11:00,
2013-04-26 07:12:00,27.8,25.2,30.35,WSW,241,0.0,0.0,90,0.00,,---,0.00,VWS V14.00,2013-04-26 11:12:00,
2013-04-26 07:14:00,27.8,25.2,30.35,WSW,241,0.0,0.0,90,0.00,,---,0.00,VWS V14.00,2013-04-26 11:14:00,
2013-04-26 07:16:00,27.8,25.2,30.35,WSW,241,0.0,0.0,90,0.00,,---,0.00,VWS V14.00,2013-04-26 11:16:00,
2013-04-26 07:17:00,27.8,25.2,30.35,WSW,241,0.0,0.0,90,0.00,,---,0.00,VWS V14.00,2013-04-26 11:17:00,
2013-04-26 07:18:00,27.8,25.2,30.35,WSW,241,0.0,0.0,90,0.00,,---,0.00,VWS V14.00,2013-04-26 11:18:00,
2013-04-26 07:19:00,27.8,25.2,30.35,WSW,241,0.0,0.0,90,0.00,,---,0.00,VWS V14.00,2013-04-26 11:19:00,
2013-04-26 07:21:00,27.9,25.4,30.35,WSW,241,0.0,0.0,90,0.00,,---,0.00,VWS V14.00,2013-04-26 11:21:00,
2013-04-26 07:22:00,27.9,25.4,30.35,WSW,241,0.0,0.0,90,0.00,,---,0.00,VWS V14.00,2013-04-26 11:22:00,
2013-04-26 07:23:00,27.9,25.4,30.35,WSW,241,0.0,0.0,90,0.00,,---,0.00,VWS V14.00,2013-04-26 11:23:00,
2013-04-26 07:24:00,27.9,25.4,30.35,WSW,241,0.0,0.0,90,0.00,,---,0.00,VWS V14.00,2013-04-26 11:24:00,
2013-04-26 07:26:00,27.9,25.4,30.35,WSW,241,0.0,0.0,90,0.00,,---,0.00,VWS V14.00,2013-04-26 11:26:00,
2013-04-26 07:27:00,27.9,25.4,30.35,WSW,241,0.0,0.0,90,0.00,,---,0.00,VWS V14.00,2013-04-26 11:27:00,
2013-04-26 07:28:00,27.9,25.4,30.35,WSW,241,0.0,0.0,90,0.00,,---,0.00,VWS V14.00,2013-04-26 11:28:00,
2013-04-26 07:29:00,28.1,25.5,30.35,WSW,241,0.0,0.0,90,0.00,,---,0.00,VWS V14.00,2013-04-26 11:29:00,
2013-04-26 07:32:00,28.2,25.9,30.35,WSW,241,0.0,0.0,91,0.00,,---,0.00,VWS V14.00,2013-04-26 11:32:00,
2013-04-26 07:33:00,28.4,26.1,30.35,WSW,241,0.0,0.0,91,0.00,,---,0.00,VWS V14.00,2013-04-26 11:33:00,
2013-04-26 07:34:00,28.4,26.1,30.35,WSW,241,0.0,0.0,91,0.00,,---,0.00,VWS V14.00,2013-04-26 11:34:00,
2013-04-26 07:37:00,28.7,26.4,30.35,WSW,241,0.0,0.0,91,0.00,,---,0.00,VWS V14.00,2013-04-26 11:37:00,
2013-04-26 07:38:00,28.7,26.4,30.35,WSW,241,0.0,0.0,91,0.00,,---,0.00,VWS V14.00,2013-04-26 11:38:00,
2013-04-26 07:40:00,28.8,26.5,30.35,WSW,241,0.0,0.0,91,0.00,,---,0.00,VWS V14.00,2013-04-26 11:40:00,
2013-04-26 07:42:00,29.0,26.7,30.35,WSW,241,0.0,0.0,91,0.00,,---,0.00,VWS V14.00,2013-04-26 11:42:00,
2013-04-26 07:43:00,29.0,26.7,30.35,WSW,241,0.0,0.0,91,0.00,,---,0.00,VWS V14.00,2013-04-26 11:43:00,
2013-04-26 07:45:00,29.1,26.8,30.35,WSW,241,0.0,0.0,91,0.00,,---,0.00,VWS V14.00,2013-04-26 11:45:00,
2013-04-26 07:47:00,29.1,26.8,30.36,WSW,241,0.0,0.0,91,0.00,,---,0.00,VWS V14.00,2013-04-26 11:47:00,
2013-04-26 07:48:00,29.3,27.0,30.36,WSW,241,0.0,0.0,91,0.00,,---,0.00,VWS V14.00,2013-04-26 11:48:00,
2013-04-26 07:49:00,29.3,27.0,30.36,WSW,241,0.0,0.0,91,0.00,,---,0.00,VWS V14.00,2013-04-26 11:49:00,
2013-04-26 07:51:00,29.4,27.1,30.36,WSW,241,0.0,0.0,91,0.00,,---,0.00,VWS V14.00,2013-04-26 11:51:00,
2013-04-26 07:52:00,29.4,27.1,30.36,WSW,241,0.0,0.0,91,0.00,,---,0.00,VWS V14.00,2013-04-26 11:52:00,
2013-04-26 07:53:00,29.4,27.1,30.36,WSW,241,0.0,0.0,91,0.00,,---,0.00,VWS V14.00,2013-04-26 11:53:00,
2013-04-26 07:54:00,29.5,27.2,30.36,WSW,241,0.0,0.0,91,0.00,,---,0.00,VWS V14.00,2013-04-26 11:54:00,
2013-04-26 07:56:00,29.5,27.2,30.36,WSW,241,0.0,0.0,91,0.00,,---,0.00,VWS V14.00,2013-04-26 11:56:00,
2013-04-26 07:57:00,29.7,27.7,30.36,WSW,241,0.0,0.0,92,0.00,,---,0.00,VWS V14.00,2013-04-26 11:57:00,
2013-04-26 07:58:00,29.7,27.7,30.36,WSW,241,0.0,0.0,92,0.00,,---,0.00,VWS V14.00,2013-04-26 11:58:00,
2013-04-26 07:59:00,29.7,27.7,30.36,WSW,241,0.0,0.0,92,0.00,,---,0.00,VWS V14.00,2013-04-26 11:59:00,
2013-04-26 08:01:00,29.8,27.8,30.36,WSW,241,0.0,0.0,92,0.00,,---,0.00,VWS V14.00,2013-04-26 12:01:00,
2013-04-26 08:02:00,30.0,28.0,30.36,WSW,241,0.0,0.0,92,0.00,,---,0.00,VWS V14.00,2013-04-26 12:02:00,
2013-04-26 08:03:00,30.0,28.0,30.36,WSW,241,0.0,0.0,92,0.00,,---,0.00,VWS V14.00,2013-04-26 12:03:00,
2013-04-26 08:04:00,30.1,28.1,30.36,WSW,241,0.0,0.0,92,0.00,,---,0.00,VWS V14.00,2013-04-26 12:04:00,
2013-04-26 08:06:00,30.3,28.3,30.36,WSW,241,0.0,0.0,92,0.00,,---,0.00,VWS V14.00,2013-04-26 12:06:00,
2013-04-26 08:08:00,30.4,28.4,30.36,WSW,241,0.0,0.0,92,0.00,,---,0.00,VWS V14.00,2013-04-26 12:08:00,
2013-04-26 08:09:00,30.6,28.6,30.36,WSW,241,0.0,0.0,92,0.00,,---,0.00,VWS V14.00,2013-04-26 12:09:00,
2013-04-26 08:11:00,30.7,28.7,30.36,WSW,241,0.0,0.0,92,0.00,,---,0.00,VWS V14.00,2013-04-26 12:11:00,
2013-04-26 08:13:00,30.9,28.9,30.36,WSW,241,0.0,0.0,92,0.00,,---,0.00,VWS V14.00,2013-04-26 12:13:00,
2013-04-26 08:14:00,30.9,28.9,30.36,WSW,241,0.0,0.0,92,0.00,,---,0.00,VWS V14.00,2013-04-26 12:14:00,
2013-04-26 08:16:00,31.0,29.0,30.37,WSW,241,0.0,0.0,92,0.00,,---,0.00,VWS V14.00,2013-04-26 12:16:00,
2013-04-26 08:18:00,31.2,29.1,30.37,WSW,241,0.0,0.0,92,0.00,,---,0.00,VWS V14.00,2013-04-26 12:18:00,
2013-04-26 08:19:00,31.2,29.1,30.37,WSW,241,0.0,0.0,92,0.00,,---,0.00,VWS V14.00,2013-04-26 12:19:00,
2013-04-26 08:21:00,31.3,29.2,30.37,WSW,241,0.0,0.0,92,0.00,,---,0.00,VWS V14.00,2013-04-26 12:21:00,
2013-04-26 08:23:00,31.6,29.5,30.37,WSW,241,0.0,0.0,92,0.00,,---,0.00,VWS V14.00,2013-04-26 12:23:00,
2013-04-26 08:24:00,31.8,29.8,30.37,WSW,241,0.0,0.0,92,0.00,,---,0.00,VWS V14.00,2013-04-26 12:24:00,
2013-04-26 08:26:00,31.9,29.8,30.37,WSW,241,0.0,0.0,92,0.00,,---,0.00,VWS V14.00,2013-04-26 12:26:00,
2013-04-26 08:29:00,32.2,30.4,30.37,WSW,241,0.0,0.0,93,0.00,,---,0.00,VWS V14.00,2013-04-26 12:29:00,
2013-04-26 08:30:00,32.4,30.6,30.37,WSW,241,0.0,0.0,93,0.00,,---,0.00,VWS V14.00,2013-04-26 12:30:00,
2013-04-26 08:31:00,32.5,30.7,30.37,WSW,241,0.0,0.0,93,0.00,,---,0.00,VWS V14.00,2013-04-26 12:31:00,
2013-04-26 08:34:00,32.8,31.0,30.37,WSW,241,0.0,0.0,93,0.00,,---,0.00,VWS V14.00,2013-04-26 12:34:00,
2013-04-26 08:35:00,32.8,31.0,30.37,WSW,241,0.0,0.0,93,0.00,,---,0.00,VWS V14.00,2013-04-26 12:35:00,
2013-04-26 08:36:00,32.9,31.1,30.37,WSW,241,0.0,0.0,93,0.00,,---,0.00,VWS V14.00,2013-04-26 12:36:00,
2013-04-26 08:39:00,33.2,31.4,30.37,WSW,241,0.0,0.0,93,0.00,,---,0.00,VWS V14.00,2013-04-26 12:39:00,
2013-04-26 08:40:00,33.2,31.4,30.37,WSW,241,0.0,0.0,93,0.00,,---,0.00,VWS V14.00,2013-04-26 12:40:00,
2013-04-26 08:41:00,33.4,31.6,30.37,WSW,241,0.0,0.0,93,0.00,,---,0.00,VWS V14.00,2013-04-26 12:41:00,
2013-04-26 08:44:00,33.7,31.9,30.37,WSW,241,0.0,0.0,93,0.00,,---,0.00,VWS V14.00,2013-04-26 12:44:00,
2013-04-26 08:45:00,33.8,32.0,30.37,WSW,241,0.0,0.0,93,0.00,,---,0.00,VWS V14.00,2013-04-26 12:45:00,
2013-04-26 08:47:00,34.0,32.2,30.37,SSW,210,0.0,0.0,93,0.00,,---,0.00,VWS V14.00,2013-04-26 12:47:00,
2013-04-26 08:49:00,34.3,32.5,30.37,SSW,210,0.0,0.0,93,0.00,,---,0.00,VWS V14.00,2013-04-26 12:49:00,
2013-04-26 08:50:00,34.3,32.5,30.37,SSW,210,0.0,0.0,93,0.00,,---,0.00,VWS V14.00,2013-04-26 12:50:00,
2013-04-26 08:52:00,34.6,32.8,30.37,SSW,210,0.0,0.0,93,0.00,,---,0.00,VWS V14.00,2013-04-26 12:52:00,
2013-04-26 08:54:00,34.9,33.1,30.37,SSW,210,0.0,0.0,93,0.00,,---,0.00,VWS V14.00,2013-04-26 12:54:00,
2013-04-26 08:55:00,35.0,33.2,30.37,SSW,210,0.0,0.0,93,0.00,,---,0.00,VWS V14.00,2013-04-26 12:55:00,
2013-04-26 08:57:00,35.3,33.5,30.37,SSW,210,0.0,0.0,93,0.00,,---,0.00,VWS V14.00,2013-04-26 12:57:00,
2013-04-26 08:59:00,35.9,34.1,30.37,SSW,198,0.0,6.0,93,0.00,,---,0.00,VWS V14.00,2013-04-26 12:59:00,
2013-04-26 09:00:00,36.0,34.2,30.37,South,186,0.0,6.0,93,0.00,,---,0.00,VWS V14.00,2013-04-26 13:00:00,
2013-04-26 09:02:00,36.3,34.5,30.37,SSE,164,0.0,0.0,93,0.00,,---,0.00,VWS V14.00,2013-04-26 13:02:00,
2013-04-26 09:04:00,36.6,34.5,30.37,SSE,164,0.0,0.0,92,0.00,,---,0.00,VWS V14.00,2013-04-26 13:04:00,
2013-04-26 09:05:00,36.8,34.7,30.37,SSE,167,0.0,2.0,92,0.00,,---,0.00,VWS V14.00,2013-04-26 13:05:00,
2013-04-26 09:06:00,36.9,34.8,30.37,SSE,167,0.0,2.0,92,0.00,,---,0.00,VWS V14.00,2013-04-26 13:06:00,
2013-04-26 09:07:00,37.2,35.1,30.37,SSE,167,0.0,2.0,92,0.00,,---,0.00,VWS V14.00,2013-04-26 13:07:00,
2013-04-26 09:09:00,37.5,35.1,30.37,South,185,0.0,2.0,91,0.00,,---,0.00,VWS V14.00,2013-04-26 13:09:00,
2013-04-26 09:10:00,37.8,35.4,30.37,South,185,0.0,2.0,91,0.00,,---,0.00,VWS V14.00,2013-04-26 13:10:00,
2013-04-26 09:11:00,37.9,35.5,30.37,SSE,160,0.0,4.0,91,0.00,,---,0.00,VWS V14.00,2013-04-26 13:11:00,
2013-04-26 09:12:00,38.2,35.5,30.37,South,172,0.0,4.0,90,0.00,,---,0.00,VWS V14.00,2013-04-26 13:12:00,
2013-04-26 09:14:00,38.5,35.5,30.37,SSE,155,0.0,4.0,89,0.00,,---,0.00,VWS V14.00,2013-04-26 13:14:00,
2013-04-26 09:15:00,38.6,35.6,30.37,SSE,162,1.0,4.0,89,0.00,,---,0.00,VWS V14.00,2013-04-26 13:15:00,
2013-04-26 09:16:00,38.6,35.6,30.37,South,172,4.0,4.0,89,0.00,,---,0.00,VWS V14.00,2013-04-26 13:16:00,
2013-04-26 09:17:00,38.9,35.7,30.37,South,182,2.0,4.0,88,0.00,,---,0.00,VWS V14.00,2013-04-26 13:17:00,
2013-04-26 09:19:00,39.3,35.5,30.37,South,191,2.0,4.0,86,0.00,,---,0.00,VWS V14.00,2013-04-26 13:19:00,
2013-04-26 09:20:00,39.6,35.8,30.37,SSW,195,0.0,4.0,86,0.00,,---,0.00,VWS V14.00,2013-04-26 13:20:00,
2013-04-26 09:21:00,39.6,35.8,30.37,SE,130,0.0,4.0,86,0.00,,---,0.00,VWS V14.00,2013-04-26 13:21:00,
2013-04-26 09:22:00,39.9,35.8,30.37,SSE,165,0.0,4.0,85,0.00,,---,0.00,VWS V14.00,2013-04-26 13:22:00,
2013-04-26 09:25:00,40.5,36.0,30.37,South,181,0.0,4.0,84,0.00,,---,0.00,VWS V14.00,2013-04-26 13:25:00,
2013-04-26 09:26:00,40.6,35.5,30.37,SSW,198,1.0,6.0,82,0.00,,---,0.00,VWS V14.00,2013-04-26 13:26:00,
2013-04-26 09:27:00,40.9,35.8,30.37,SSW,203,7.0,7.0,82,0.00,,---,0.00,VWS V14.00,2013-04-26 13:27:00,
2013-04-26 09:30:00,41.5,35.5,30.37,SW,215,4.0,7.0,79,0.00,,---,0.00,VWS V14.00,2013-04-26 13:30:00,
2013-04-26 09:31:00,41.6,35.3,30.37,South,169,1.0,7.0,78,0.00,,---,0.00,VWS V14.00,2013-04-26 13:31:00,
2013-04-26 09:32:00,41.8,34.8,30.37,SSW,203,6.0,8.0,76,0.00,,---,0.00,VWS V14.00,2013-04-26 13:32:00,
2013-04-26 09:35:00,42.1,34.1,30.37,SSE,165,1.0,9.0,73,0.00,,---,0.00,VWS V14.00,2013-04-26 13:35:00,
2013-04-26 09:36:00,42.2,34.2,30.37,SSW,192,4.0,9.0,73,0.00,,---,0.00,VWS V14.00,2013-04-26 13:36:00,
2013-04-26 09:37:00,42.3,33.9,30.37,SSW,198,4.0,9.0,72,0.00,,---,0.00,VWS V14.00,2013-04-26 13:37:00,
2013-04-26 09:38:00,42.5,34.1,30.37,SSE,151,0.0,9.0,72,0.00,,---,0.00,VWS V14.00,2013-04-26 13:38:00,
2013-04-26 09:40:00,42.6,33.5,30.37,SSE,151,1.0,9.0,70,0.00,,---,0.00,VWS V14.00,2013-04-26 13:40:00,
2013-04-26 09:41:00,42.8,33.7,30.37,SSE,162,0.0,9.0,70,0.00,,---,0.00,VWS V14.00,2013-04-26 13:41:00,
2013-04-26 09:42:00,42.8,33.7,30.37,SSE,158,2.0,9.0,70,0.00,,---,0.00,VWS V14.00,2013-04-26 13:42:00,
2013-04-26 09:43:00,42.9,33.4,30.37,SSE,151,7.0,9.0,69,0.00,,---,0.00,VWS V14.00,2013-04-26 13:43:00,
2013-04-26 09:45:00,43.1,33.6,30.38,SSE,158,2.0,9.0,69,0.00,,---,0.00,VWS V14.00,2013-04-26 13:45:00,
2013-04-26 09:46:00,43.1,33.6,30.38,South,175,2.0,9.0,69,0.00,,---,0.00,VWS V14.00,2013-04-26 13:46:00,
2013-04-26 09:47:00,43.2,33.7,30.38,South,176,2.0,9.0,69,0.00,,---,0.00,VWS V14.00,2013-04-26 13:47:00,
2013-04-26 09:48:00,43.2,33.7,30.38,SW,217,6.0,9.0,69,0.00,,---,0.00,VWS V14.00,2013-04-26 13:48:00,
2013-04-26 09:51:00,43.5,34.0,30.38,SW,216,4.0,9.0,69,0.00,,---,0.00,VWS V14.00,2013-04-26 13:51:00,
2013-04-26 09:52:00,43.6,33.8,30.38,South,188,0.0,9.0,68,0.00,,---,0.00,VWS V14.00,2013-04-26 13:52:00,
2013-04-26 09:53:00,43.6,33.8,30.38,SE,138,6.0,9.0,68,0.00,,---,0.00,VWS V14.00,2013-04-26 13:53:00,
2013-04-26 09:56:00,43.9,33.7,30.38,SSE,155,6.0,9.0,67,0.00,,---,0.00,VWS V14.00,2013-04-26 13:56:00,
2013-04-26 09:57:00,44.1,33.9,30.38,SSE,151,1.0,9.0,67,0.00,,---,0.00,VWS V14.00,2013-04-26 13:57:00,
2013-04-26 09:58:00,44.1,33.5,30.38,SSE,151,0.0,9.0,66,0.00,,---,0.00,VWS V14.00,2013-04-26 13:58:00,
2013-04-26 10:01:00,44.5,34.2,30.38,SSW,195,2.0,9.0,67,0.00,,---,0.00,VWS V14.00,2013-04-26 14:01:00,
2013-04-26 10:02:00,44.5,33.9,30.38,SSW,209,11.0,11.0,66,0.00,,---,0.00,VWS V14.00,2013-04-26 14:02:00,
2013-04-26 10:03:00,44.5,33.5,30.38,SW,224,1.0,11.0,65,0.00,,---,0.00,VWS V14.00,2013-04-26 14:03:00,
2013-04-26 10:04:00,44.6,33.6,30.38,SW,216,8.0,11.0,65,0.00,,---,0.00,VWS V14.00,2013-04-26 14:04:00,
2013-04-26 10:06:00,44.8,33.4,30.38,SW,219,4.0,11.0,64,0.00,,---,0.00,VWS V14.00,2013-04-26 14:06:00,
2013-04-26 10:07:00,44.8,33.4,30.38,SW,219,8.0,11.0,64,0.00,,---,0.00,VWS V14.00,2013-04-26 14:07:00,
2013-04-26 10:08:00,44.9,33.5,30.38,SSW,199,9.0,11.0,64,0.00,,---,0.00,VWS V14.00,2013-04-26 14:08:00,
2013-04-26 10:09:00,44.9,33.1,30.38,SSW,208,9.0,11.0,63,0.00,,---,0.00,VWS V14.00,2013-04-26 14:09:00,
2013-04-26 10:11:00,45.1,33.3,30.38,SSW,203,8.0,11.0,63,0.00,,---,0.00,VWS V14.00,2013-04-26 14:11:00,
2013-04-26 10:12:00,45.1,33.3,30.38,SSW,200,4.0,11.0,63,0.00,,---,0.00,VWS V14.00,2013-04-26 14:12:00,
2013-04-26 10:13:00,45.1,33.3,30.38,SSW,213,7.0,11.0,63,0.00,,---,0.00,VWS V14.00,2013-04-26 14:13:00,
2013-04-26 10:14:00,45.1,32.9,30.38,SSW,208,11.0,11.0,62,0.00,,---,0.00,VWS V14.00,2013-04-26 14:14:00,
2013-04-26 10:17:00,45.2,32.2,30.39,SSW,202,7.0,11.0,60,0.00,,---,0.00,VWS V14.00,2013-04-26 14:17:00,
2013-04-26 10:18:00,45.2,32.6,30.39,South,182,7.0,11.0,61,0.00,,---,0.00,VWS V14.00,2013-04-26 14:18:00,
2013-04-26 10:19:00,45.2,32.6,30.39,SSE,151,4.0,11.0,61,0.00,,---,0.00,VWS V14.00,2013-04-26 14:19:00,
2013-04-26 10:22:00,45.4,33.2,30.39,SSW,202,4.0,11.0,62,0.00,,---,0.00,VWS V14.00,2013-04-26 14:22:00,
2013-04-26 10:23:00,45.4,33.2,30.39,SSW,212,0.0,11.0,62,0.00,,---,0.00,VWS V14.00,2013-04-26 14:23:00,
2013-04-26 10:24:00,45.5,33.7,30.39,SW,220,2.0,11.0,63,0.00,,---,0.00,VWS V14.00,2013-04-26 14:24:00,
2013-04-26 10:27:00,45.8,33.9,30.39,SSW,210,0.0,11.0,63,0.00,,---,0.00,VWS V14.00,2013-04-26 14:27:00,
2013-04-26 10:28:00,46.0,34.1,30.39,South,185,0.0,11.0,63,0.00,,---,0.00,VWS V14.00,2013-04-26 14:28:00,
2013-04-26 10:30:00,46.0,34.1,30.39,SW,216,4.0,11.0,63,0.00,,---,0.00,VWS V14.00,2013-04-26 14:30:00,
2013-04-26 10:32:00,46.1,33.8,30.39,SSW,205,10.0,13.0,62,0.00,,---,0.00,VWS V14.00,2013-04-26 14:32:00,
2013-04-26 10:34:00,46.2,33.5,30.39,SW,217,7.0,13.0,61,0.00,,---,0.00,VWS V14.00,2013-04-26 14:34:00,
2013-04-26 10:35:00,46.2,33.1,30.39,WNW,302,1.0,13.0,60,0.00,,---,0.00,VWS V14.00,2013-04-26 14:35:00,
2013-04-26 10:38:00,46.5,33.8,30.39,SW,220,8.0,13.0,61,0.00,,---,0.00,VWS V14.00,2013-04-26 14:38:00,
2013-04-26 10:39:00,46.5,33.4,30.39,SSW,200,1.0,14.0,60,0.00,,---,0.00,VWS V14.00,2013-04-26 14:39:00,
2013-04-26 10:40:00,46.7,33.2,30.39,SSW,200,4.0,14.0,59,0.00,,---,0.00,VWS V14.00,2013-04-26 14:40:00,
2013-04-26 10:43:00,46.8,33.2,30.39,SW,219,11.0,14.0,59,0.00,,---,0.00,VWS V14.00,2013-04-26 14:43:00,
2013-04-26 10:44:00,46.8,33.2,30.39,SW,226,2.0,14.0,59,0.00,,---,0.00,VWS V14.00,2013-04-26 14:44:00,
2013-04-26 10:45:00,47.0,33.4,30.39,SSE,164,2.0,14.0,59,0.00,,---,0.00,VWS V14.00,2013-04-26 14:45:00,
2013-04-26 10:48:00,47.0,33.0,30.39,SSW,209,9.0,14.0,58,0.00,,---,0.00,VWS V14.00,2013-04-26 14:48:00,
2013-04-26 10:49:00,47.0,33.0,30.39,SSW,192,7.0,14.0,58,0.00,,---,0.00,VWS V14.00,2013-04-26 14:49:00,
2013-04-26 10:50:00,47.0,32.6,30.39,SSW,213,8.0,14.0,57,0.00,,---,0.00,VWS V14.00,2013-04-26 14:50:00,
2013-04-26 10:53:00,47.1,32.7,30.39,SSW,202,13.0,14.0,57,0.00,,---,0.00,VWS V14.00,2013-04-26 14:53:00,
2013-04-26 10:54:00,47.1,32.7,30.39,SSW,209,6.0,14.0,57,0.00,,---,0.00,VWS V14.00,2013-04-26 14:54:00,
2013-04-26 10:55:00,47.1,33.1,30.39,SSW,198,2.0,14.0,58,0.00,,---,0.00,VWS V14.00,2013-04-26 14:55:00,
2013-04-26 10:58:00,47.4,33.0,30.39,SSW,208,6.0,14.0,57,0.00,,---,0.00,VWS V14.00,2013-04-26 14:58:00,
2013-04-26 10:59:00,47.4,33.4,30.39,SSE,147,2.0,14.0,58,0.00,,---,0.00,VWS V14.00,2013-04-26 14:59:00,
2013-04-26 11:00:00,47.4,33.0,30.38,SE,144,6.0,14.0,57,0.00,,---,0.00,VWS V14.00,2013-04-26 15:00:00,
2013-04-26 11:04:00,47.6,32.2,30.38,SE,145,4.0,9.0,55,0.00,,---,0.00,VWS V14.00,2013-04-26 15:04:00,
2013-04-26 11:05:00,47.6,32.7,30.38,SSE,151,4.0,9.0,56,0.00,,---,0.00,VWS V14.00,2013-04-26 15:05:00,
2013-04-26 11:06:00,47.6,32.7,30.38,SSW,196,10.0,10.0,56,0.00,,---,0.00,VWS V14.00,2013-04-26 15:06:00,
2013-04-26 11:09:00,47.7,32.3,30.38,SSE,148,6.0,10.0,55,0.00,,---,0.00,VWS V14.00,2013-04-26 15:09:00,
2013-04-26 11:10:00,47.7,32.3,30.38,SSE,154,4.0,10.0,55,0.00,,---,0.00,VWS V14.00,2013-04-26 15:10:00,
2013-04-26 11:11:00,47.7,32.3,30.38,SSE,158,4.0,10.0,55,0.00,,---,0.00,VWS V14.00,2013-04-26 15:11:00,
2013-04-26 11:14:00,48.0,33.5,30.38,SSE,148,4.0,11.0,57,0.00,,---,0.00,VWS V14.00,2013-04-26 15:14:00,
2013-04-26 11:15:00,48.0,33.5,30.38,SSE,160,4.0,11.0,57,0.00,,---,0.00,VWS V14.00,2013-04-26 15:15:00,
2013-04-26 11:16:00,48.0,33.5,30.38,SSE,168,4.0,11.0,57,0.00,,---,0.00,VWS V14.00,2013-04-26 15:16:00,
2013-04-26 11:19:00,48.2,32.8,30.38,SSE,158,0.0,11.0,55,0.00,,---,0.00,VWS V14.00,2013-04-26 15:19:00,
2013-04-26 11:20:00,48.3,33.3,30.38,SSE,162,2.0,11.0,56,0.00,,---,0.00,VWS V14.00,2013-04-26 15:20:00,
2013-04-26 11:21:00,48.3,33.8,30.38,SSW,208,9.0,11.0,57,0.00,,---,0.00,VWS V14.00,2013-04-26 15:21:00,
2013-04-26 11:24:00,48.5,32.6,30.38,SSW,209,4.0,11.0,54,0.00,,---,0.00,VWS V14.00,2013-04-26 15:24:00,
2013-04-26 11:25:00,48.5,33.1,30.38,SSW,206,4.0,11.0,55,0.00,,---,0.00,VWS V14.00,2013-04-26 15:25:00,
2013-04-26 11:26:00,48.6,33.2,30.38,SSW,198,7.0,11.0,55,0.00,,---,0.00,VWS V14.00,2013-04-26 15:26:00,
2013-04-26 11:29:00,48.9,33.9,30.38,SE,143,1.0,11.0,56,0.00,,---,0.00,VWS V14.00,2013-04-26 15:29:00,
2013-04-26 11:30:00,48.9,33.9,30.38,ESE,123,1.0,11.0,56,0.00,,---,0.00,VWS V14.00,2013-04-26 15:30:00,
2013-04-26 11:31:00,48.9,34.3,30.38,SSE,150,4.0,11.0,57,0.00,,---,0.00,VWS V14.00,2013-04-26 15:31:00,
2013-04-26 11:34:00,49.2,33.3,30.38,SSW,202,14.0,14.0,54,0.00,,---,0.00,VWS V14.00,2013-04-26 15:34:00,
2013-04-26 11:35:00,49.1,33.2,30.38,SSW,206,8.0,14.0,54,0.00,,---,0.00,VWS V14.00,2013-04-26 15:35:00,
2013-04-26 11:36:00,49.1,32.2,30.38,SSW,200,0.0,14.0,52,0.00,,---,0.00,VWS V14.00,2013-04-26 15:36:00,
2013-04-26 11:40:00,49.2,31.9,30.38,SSW,199,6.0,14.0,51,0.00,,---,0.00,VWS V14.00,2013-04-26 15:40:00,
2013-04-26 11:41:00,49.2,32.3,30.38,SSE,158,6.0,14.0,52,0.00,,---,0.00,VWS V14.00,2013-04-26 15:41:00,
2013-04-26 11:45:00,49.4,32.5,30.38,SSE,160,0.0,14.0,52,0.00,,---,0.00,VWS V14.00,2013-04-26 15:45:00,
2013-04-26 11:46:00,49.4,32.5,30.38,SSE,162,0.0,14.0,52,0.00,,---,0.00,VWS V14.00,2013-04-26 15:46:00,
2013-04-26 11:50:00,49.6,33.7,30.38,South,182,14.0,15.0,54,0.00,,---,0.00,VWS V14.00,2013-04-26 15:50:00,
2013-04-26 11:51:00,49.6,32.7,30.38,SSW,199,4.0,15.0,52,0.00,,---,0.00,VWS V14.00,2013-04-26 15:51:00,
2013-04-26 11:52:00,49.6,32.2,30.38,South,175,8.0,15.0,51,0.00,,---,0.00,VWS V14.00,2013-04-26 15:52:00,
2013-04-26 11:55:00,49.6,32.7,30.38,South,184,8.0,17.0,52,0.00,,---,0.00,VWS V14.00,2013-04-26 15:55:00,
2013-04-26 11:56:00,49.6,32.7,30.38,SW,223,9.0,17.0,52,0.00,,---,0.00,VWS V14.00,2013-04-26 15:56:00,
2013-04-26 11:57:00,49.6,32.7,30.38,SSW,206,4.0,17.0,52,0.00,,---,0.00,VWS V14.00,2013-04-26 15:57:00,
2013-04-26 12:00:00,49.8,33.4,30.38,SSW,212,7.0,17.0,53,0.00,,---,0.00,VWS V14.00,2013-04-26 16:00:00,
2013-04-26 12:01:00,49.8,33.4,30.37,SSW,202,6.0,17.0,53,0.00,,---,0.00,VWS V14.00,2013-04-26 16:01:00,
2013-04-26 12:02:00,49.9,33.5,30.37,SSE,147,2.0,9.0,53,0.00,,---,0.00,VWS V14.00,2013-04-26 16:02:00,
2013-04-26 12:05:00,50.1,34.1,30.37,SSW,195,6.0,13.0,54,0.00,,---,0.00,VWS V14.00,2013-04-26 16:05:00,
2013-04-26 12:06:00,50.2,33.7,30.37,South,181,2.0,13.0,53,0.00,,---,0.00,VWS V14.00,2013-04-26 16:06:00,
2013-04-26 12:07:00,50.2,34.2,30.37,SSE,154,2.0,13.0,54,0.00,,---,0.00,VWS V14.00,2013-04-26 16:07:00,
2013-04-26 12:10:00,50.5,35.0,30.37,South,185,2.0,13.0,55,0.00,,---,0.00,VWS V14.00,2013-04-26 16:10:00,
2013-04-26 12:11:00,50.7,35.1,30.37,ESE,123,4.0,13.0,55,0.00,,---,0.00,VWS V14.00,2013-04-26 16:11:00,
2013-04-26 12:12:00,50.7,35.1,30.37,South,172,2.0,13.0,55,0.00,,---,0.00,VWS V14.00,2013-04-26 16:12:00,
2013-04-26 12:15:00,51.0,33.5,30.38,SE,136,0.0,14.0,51,0.00,,---,0.00,VWS V14.00,2013-04-26 16:15:00,
2013-04-26 12:16:00,51.1,33.6,30.38,SE,144,4.0,14.0,51,0.00,,---,0.00,VWS V14.00,2013-04-26 16:16:00,
2013-04-26 12:17:00,51.1,34.1,30.38,SSE,157,7.0,14.0,52,0.00,,---,0.00,VWS V14.00,2013-04-26 16:17:00,
2013-04-26 12:20:00,51.4,34.4,30.38,SW,215,4.0,14.0,52,0.00,,---,0.00,VWS V14.00,2013-04-26 16:20:00,
2013-04-26 12:21:00,51.6,34.1,30.38,South,181,8.0,14.0,51,0.00,,---,0.00,VWS V14.00,2013-04-26 16:21:00,
2013-04-26 12:22:00,51.6,34.1,30.38,South,176,7.0,14.0,51,0.00,,---,0.00,VWS V14.00,2013-04-26 16:22:00,
2013-04-26 12:25:00,51.6,33.6,30.38,SW,223,4.0,14.0,50,0.00,,---,0.00,VWS V14.00,2013-04-26 16:25:00,
2013-04-26 12:26:00,51.6,33.6,30.38,South,169,1.0,14.0,50,0.00,,---,0.00,VWS V14.00,2013-04-26 16:26:00,
2013-04-26 12:27:00,51.4,33.9,30.38,SW,220,4.0,14.0,51,0.00,,---,0.00,VWS V14.00,2013-04-26 16:27:00,
2013-04-26 12:31:00,51.4,33.4,30.38,SW,222,8.0,15.0,50,0.00,,---,0.00,VWS V14.00,2013-04-26 16:31:00,
2013-04-26 12:32:00,51.3,33.3,30.38,SSW,209,2.0,15.0,50,0.00,,---,0.00,VWS V14.00,2013-04-26 16:32:00,
2013-04-26 12:36:00,51.6,33.6,30.38,SSE,164,6.0,17.0,50,0.00,,---,0.00,VWS V14.00,2013-04-26 16:36:00,
2013-04-26 12:37:00,51.6,33.6,30.38,SSE,157,2.0,17.0,50,0.00,,---,0.00,VWS V14.00,2013-04-26 16:37:00,
2013-04-26 12:41:00,51.9,34.4,30.38,SW,226,7.0,17.0,51,0.00,,---,0.00,VWS V14.00,2013-04-26 16:41:00,
2013-04-26 12:42:00,52.0,34.5,30.38,SSW,213,9.0,17.0,51,0.00,,---,0.00,VWS V14.00,2013-04-26 16:42:00,
2013-04-26 12:46:00,52.0,34.0,30.37,SSW,212,7.0,17.0,50,0.00,,---,0.00,VWS V14.00,2013-04-26 16:46:00,
2013-04-26 12:47:00,52.0,33.5,30.37,SSW,208,9.0,17.0,49,0.00,,---,0.00,VWS V14.00,2013-04-26 16:47:00,
2013-04-26 12:48:00,52.0,34.0,30.37,SSE,150,4.0,17.0,50,0.00,,---,0.00,VWS V14.00,2013-04-26 16:48:00,
2013-04-26 12:51:00,52.5,34.9,30.37,SSW,206,2.0,17.0,51,0.00,,---,0.00,VWS V14.00,2013-04-26 16:51:00,
2013-04-26 12:52:00,52.6,35.5,30.37,SSE,158,4.0,17.0,52,0.00,,---,0.00,VWS V14.00,2013-04-26 16:52:00,
2013-04-26 12:53:00,52.6,35.5,30.37,SW,223,6.0,17.0,52,0.00,,---,0.00,VWS V14.00,2013-04-26 16:53:00,
2013-04-26 12:56:00,52.9,35.8,30.37,SW,223,9.0,17.0,52,0.00,,---,0.00,VWS V14.00,2013-04-26 16:56:00,
2013-04-26 12:57:00,53.1,36.0,30.37,SSW,208,9.0,17.0,52,0.00,,---,0.00,VWS V14.00,2013-04-26 16:57:00,
2013-04-26 12:58:00,53.1,35.5,30.37,SSW,192,9.0,17.0,51,0.00,,---,0.00,VWS V14.00,2013-04-26 16:58:00,
2013-04-26 13:01:00,53.2,35.1,30.36,SW,220,7.0,17.0,50,0.00,,---,0.00,VWS V14.00,2013-04-26 17:01:00,
2013-04-26 13:02:00,53.2,35.1,30.36,SSW,205,11.0,15.0,50,0.00,,---,0.00,VWS V14.00,2013-04-26 17:02:00,
2013-04-26 13:03:00,53.1,34.5,30.36,SSW,206,7.0,15.0,49,0.00,,---,0.00,VWS V14.00,2013-04-26 17:03:00,
2013-04-26 13:06:00,53.2,36.5,30.36,SW,216,11.0,15.0,53,0.00,,---,0.00,VWS V14.00,2013-04-26 17:06:00,
2013-04-26 13:07:00,53.2,35.6,30.36,SW,216,8.0,15.0,51,0.00,,---,0.00,VWS V14.00,2013-04-26 17:07:00,
2013-04-26 13:08:00,53.2,35.1,30.36,SW,219,6.0,15.0,50,0.00,,---,0.00,VWS V14.00,2013-04-26 17:08:00,
2013-04-26 13:12:00,53.2,35.1,30.36,SW,229,1.0,15.0,50,0.00,,---,0.00,VWS V14.00,2013-04-26 17:12:00,
2013-04-26 13:13:00,53.2,36.0,30.36,South,182,0.0,15.0,52,0.00,,---,0.00,VWS V14.00,2013-04-26 17:13:00,
2013-04-26 13:17:00,53.2,34.0,30.36,SSW,199,6.0,15.0,48,0.00,,---,0.00,VWS V14.00,2013-04-26 17:17:00,
2013-04-26 13:18:00,53.2,35.6,30.36,SSE,168,13.0,15.0,51,0.00,,---,0.00,VWS V14.00,2013-04-26 17:18:00,
2013-04-26 13:22:00,53.5,34.3,30.36,South,191,13.0,20.0,48,0.00,,---,0.00,VWS V14.00,2013-04-26 17:22:00,
2013-04-26 13:23:00,53.5,34.3,30.36,SSE,148,1.0,20.0,48,0.00,,---,0.00,VWS V14.00,2013-04-26 17:23:00,
2013-04-26 13:24:00,53.5,34.8,30.36,SSE,160,8.0,20.0,49,0.00,,---,0.00,VWS V14.00,2013-04-26 17:24:00,
2013-04-26 13:27:00,53.5,34.3,30.36,WSW,237,1.0,20.0,48,0.00,,---,0.00,VWS V14.00,2013-04-26 17:27:00,
2013-04-26 13:28:00,53.5,33.8,30.36,SE,138,8.0,20.0,47,0.00,,---,0.00,VWS V14.00,2013-04-26 17:28:00,
2013-04-26 13:29:00,53.6,35.4,30.36,SE,143,6.0,20.0,50,0.00,,---,0.00,VWS V14.00,2013-04-26 17:29:00,
2013-04-26 13:32:00,54.1,35.9,30.34,SSE,158,2.0,20.0,50,0.00,,---,0.00,VWS V14.00,2013-04-26 17:32:00,
2013-04-26 13:33:00,54.1,35.9,30.34,SSE,155,4.0,20.0,50,0.00,,---,0.00,VWS V14.00,2013-04-26 17:33:00,
2013-04-26 13:34:00,54.2,36.0,30.34,South,181,4.0,20.0,50,0.00,,---,0.00,VWS V14.00,2013-04-26 17:34:00,
2013-04-26 13:37:00,54.2,33.9,30.34,SSW,208,0.0,20.0,46,0.00,,---,0.00,VWS V14.00,2013-04-26 17:37:00,
2013-04-26 13:38:00,54.4,34.6,30.34,SSW,208,2.0,20.0,47,0.00,,---,0.00,VWS V14.00,2013-04-26 17:38:00,
2013-04-26 13:39:00,54.4,35.1,30.34,SW,223,9.0,20.0,48,0.00,,---,0.00,VWS V14.00,2013-04-26 17:39:00,
2013-04-26 13:42:00,54.2,35.0,30.34,SSE,160,9.0,20.0,48,0.00,,---,0.00,VWS V14.00,2013-04-26 17:42:00,
2013-04-26 13:43:00,54.2,34.4,30.34,SE,127,7.0,20.0,47,0.00,,---,0.00,VWS V14.00,2013-04-26 17:43:00,
2013-04-26 13:44:00,54.2,33.3,30.34,SSE,168,1.0,20.0,45,0.00,,---,0.00,VWS V14.00,2013-04-26 17:44:00,
2013-04-26 13:47:00,54.7,35.4,30.34,SSE,157,1.0,20.0,48,0.00,,---,0.00,VWS V14.00,2013-04-26 17:47:00,
2013-04-26 13:48:00,54.7,35.4,30.34,SSW,206,9.0,20.0,48,0.00,,---,0.00,VWS V14.00,2013-04-26 17:48:00,
2013-04-26 13:49:00,54.8,35.0,30.34,SSE,157,6.0,20.0,47,0.00,,---,0.00,VWS V14.00,2013-04-26 17:49:00,
2013-04-26 13:53:00,55.0,34.6,30.34,SSW,210,9.0,20.0,46,0.00,,---,0.00,VWS V14.00,2013-04-26 17:53:00,
2013-04-26 13:54:00,55.0,34.1,30.34,SSW,210,1.0,20.0,45,0.00,,---,0.00,VWS V14.00,2013-04-26 17:54:00,
2013-04-26 13:55:00,55.0,35.2,30.34,ESE,120,6.0,20.0,47,0.00,,---,0.00,VWS V14.00,2013-04-26 17:55:00,
2013-04-26 13:58:00,55.0,35.2,30.34,South,185,4.0,20.0,47,0.00,,---,0.00,VWS V14.00,2013-04-26 17:58:00,
2013-04-26 13:59:00,55.1,35.2,30.34,WSW,258,11.0,20.0,47,0.00,,---,0.00,VWS V14.00,2013-04-26 17:59:00,
2013-04-26 14:00:00,55.1,35.2,30.34,SSW,195,7.0,20.0,47,0.00,,---,0.00,VWS V14.00,2013-04-26 18:00:00,
2013-04-26 14:03:00,55.6,35.7,30.34,South,181,9.0,10.0,47,0.00,,---,0.00,VWS V14.00,2013-04-26 18:03:00,
2013-04-26 14:04:00,55.6,36.2,30.34,SSW,192,8.0,13.0,48,0.00,,---,0.00,VWS V14.00,2013-04-26 18:04:00,
2013-04-26 14:05:00,55.7,36.3,30.34,SSW,212,6.0,13.0,48,0.00,,---,0.00,VWS V14.00,2013-04-26 18:05:00,
2013-04-26 14:08:00,55.6,34.0,30.34,SSW,202,7.0,16.0,44,0.00,,---,0.00,VWS V14.00,2013-04-26 18:08:00,
2013-04-26 14:09:00,55.4,33.9,30.34,South,182,8.0,16.0,44,0.00,,---,0.00,VWS V14.00,2013-04-26 18:09:00,
2013-04-26 14:10:00,55.4,33.9,30.34,SSW,209,11.0,16.0,44,0.00,,---,0.00,VWS V14.00,2013-04-26 18:10:00,
2013-04-26 14:13:00,55.1,33.0,30.34,SE,145,6.0,16.0,43,0.00,,---,0.00,VWS V14.00,2013-04-26 18:13:00,
2013-04-26 14:14:00,55.1,33.6,30.34,SSW,206,13.0,16.0,44,0.00,,---,0.00,VWS V14.00,2013-04-26 18:14:00,
2013-04-26 14:15:00,55.3,34.3,30.34,SSE,151,2.0,16.0,45,0.00,,---,0.00,VWS V14.00,2013-04-26 18:15:00,
2013-04-26 14:18:00,55.6,36.2,30.34,South,178,8.0,16.0,48,0.00,,---,0.00,VWS V14.00,2013-04-26 18:18:00,
2013-04-26 14:19:00,55.6,35.7,30.34,SSE,162,17.0,22.0,47,0.00,,---,0.00,VWS V14.00,2013-04-26 18:19:00,
2013-04-26 14:20:00,55.7,35.8,30.34,SSW,209,11.0,22.0,47,0.00,,---,0.00,VWS V14.00,2013-04-26 18:20:00,
2013-04-26 14:23:00,55.9,33.8,30.34,SE,140,10.0,22.0,43,0.00,,---,0.00,VWS V14.00,2013-04-26 18:23:00,
2013-04-26 14:24:00,55.9,34.3,30.34,SE,143,7.0,22.0,44,0.00,,---,0.00,VWS V14.00,2013-04-26 18:24:00,
2013-04-26 14:25:00,56.0,34.4,30.34,South,171,4.0,22.0,44,0.00,,---,0.00,VWS V14.00,2013-04-26 18:25:00,
2013-04-26 14:26:00,56.2,35.7,30.34,SSE,168,4.0,22.0,46,0.00,,---,0.00,VWS V14.00,2013-04-26 18:26:00,
2013-04-26 14:29:00,56.3,34.7,30.34,SSE,168,4.0,22.0,44,0.00,,---,0.00,VWS V14.00,2013-04-26 18:29:00,
2013-04-26 14:30:00,56.3,35.2,30.34,SSW,206,7.0,22.0,45,0.00,,---,0.00,VWS V14.00,2013-04-26 18:30:00,
2013-04-26 14:31:00,56.5,34.9,30.33,South,175,7.0,22.0,44,0.00,,---,0.00,VWS V14.00,2013-04-26 18:31:00,
2013-04-26 14:34:00,56.6,35.0,30.33,SE,141,11.0,22.0,44,0.00,,---,0.00,VWS V14.00,2013-04-26 18:34:00,
2013-04-26 14:35:00,56.6,35.0,30.33,SSE,148,9.0,22.0,44,0.00,,---,0.00,VWS V14.00,2013-04-26 18:35:00,
2013-04-26 14:36:00,56.6,35.0,30.33,SSE,148,9.0,22.0,44,0.00,,---,0.00,VWS V14.00,2013-04-26 18:36:00,
2013-04-26 14:39:00,56.5,35.4,30.33,SW,219,8.0,22.0,45,0.00,,---,0.00,VWS V14.00,2013-04-26 18:39:00,
2013-04-26 14:40:00,56.5,35.4,30.33,SSW,210,11.0,22.0,45,0.00,,---,0.00,VWS V14.00,2013-04-26 18:40:00,
2013-04-26 14:41:00,56.3,34.1,30.33,SW,227,8.0,22.0,43,0.00,,---,0.00,VWS V14.00,2013-04-26 18:41:00,
2013-04-26 14:44:00,56.3,34.1,30.33,SE,127,4.0,22.0,43,0.00,,---,0.00,VWS V14.00,2013-04-26 18:44:00,
2013-04-26 14:45:00,56.3,34.1,30.33,SE,136,4.0,22.0,43,0.00,,---,0.00,VWS V14.00,2013-04-26 18:45:00,
2013-04-26 14:46:00,56.3,35.2,30.33,South,182,4.0,22.0,45,0.00,,---,0.00,VWS V14.00,2013-04-26 18:46:00,
2013-04-26 14:47:00,56.5,35.4,30.33,SSW,203,9.0,22.0,45,0.00,,---,0.00,VWS V14.00,2013-04-26 18:47:00,
2013-04-26 14:50:00,56.6,36.1,30.33,SSW,198,8.0,22.0,46,0.00,,---,0.00,VWS V14.00,2013-04-26 18:50:00,
2013-04-26 14:51:00,56.6,35.0,30.33,SSW,199,4.0,22.0,44,0.00,,---,0.00,VWS V14.00,2013-04-26 18:51:00,
2013-04-26 14:52:00,56.6,35.0,30.33,WSW,254,10.0,22.0,44,0.00,,---,0.00,VWS V14.00,2013-04-26 18:52:00,
2013-04-26 14:55:00,56.6,35.0,30.33,SW,229,13.0,22.0,44,0.00,,---,0.00,VWS V14.00,2013-04-26 18:55:00,
2013-04-26 14:56:00,56.5,33.7,30.33,SW,219,14.0,22.0,42,0.00,,---,0.00,VWS V14.00,2013-04-26 18:56:00,
2013-04-26 14:57:00,56.3,33.5,30.33,SSW,208,11.0,22.0,42,0.00,,---,0.00,VWS V14.00,2013-04-26 18:57:00,
2013-04-26 15:00:00,56.5,34.9,30.33,SSW,195,6.0,22.0,44,0.00,,---,0.00,VWS V14.00,2013-04-26 19:00:00,
2013-04-26 15:01:00,56.3,33.5,30.33,SSW,203,17.0,22.0,42,0.00,,---,0.00,VWS V14.00,2013-04-26 19:01:00,
2013-04-26 15:02:00,56.2,33.4,30.33,SSW,206,15.0,15.0,42,0.00,,---,0.00,VWS V14.00,2013-04-26 19:02:00,
2013-04-26 15:05:00,56.0,33.2,30.33,SW,226,7.0,16.0,42,0.00,,---,0.00,VWS V14.00,2013-04-26 19:05:00,
2013-04-26 15:06:00,55.9,33.2,30.33,SSW,200,13.0,16.0,42,0.00,,---,0.00,VWS V14.00,2013-04-26 19:06:00,
2013-04-26 15:07:00,55.9,33.2,30.33,WSW,253,6.0,16.0,42,0.00,,---,0.00,VWS V14.00,2013-04-26 19:07:00,
2013-04-26 15:10:00,56.2,34.0,30.33,South,186,6.0,17.0,43,0.00,,---,0.00,VWS V14.00,2013-04-26 19:10:00,
2013-04-26 15:11:00,56.2,34.0,30.33,SSW,196,11.0,17.0,43,0.00,,---,0.00,VWS V14.00,2013-04-26 19:11:00,
2013-04-26 15:12:00,56.5,36.0,30.33,SSW,212,6.0,17.0,46,0.00,,---,0.00,VWS V14.00,2013-04-26 19:12:00,
2013-04-26 15:15:00,56.7,36.7,30.33,SSE,155,7.0,17.0,47,0.00,,---,0.00,VWS V14.00,2013-04-26 19:15:00,
2013-04-26 15:16:00,56.9,36.9,30.32,South,176,6.0,17.0,47,0.00,,---,0.00,VWS V14.00,2013-04-26 19:16:00,
2013-04-26 15:18:00,57.2,36.6,30.32,WSW,239,7.0,17.0,46,0.00,,---,0.00,VWS V14.00,2013-04-26 19:18:00,
2013-04-26 15:20:00,57.5,35.8,30.32,SSE,160,10.0,17.0,44,0.00,,---,0.00,VWS V14.00,2013-04-26 19:20:00,
2013-04-26 15:21:00,57.3,35.6,30.32,SSW,203,6.0,17.0,44,0.00,,---,0.00,VWS V14.00,2013-04-26 19:21:00,
2013-04-26 15:22:00,57.3,35.6,30.32,SSW,203,6.0,17.0,44,0.00,,---,0.00,VWS V14.00,2013-04-26 19:22:00,
2013-04-26 15:23:00,57.3,35.6,30.32,SSW,212,8.0,17.0,44,0.00,,---,0.00,VWS V14.00,2013-04-26 19:23:00,
2013-04-26 15:25:00,57.3,36.2,30.32,SSW,203,4.0,17.0,45,0.00,,---,0.00,VWS V14.00,2013-04-26 19:25:00,
2013-04-26 15:26:00,57.5,36.9,30.32,SSE,165,4.0,17.0,46,0.00,,---,0.00,VWS V14.00,2013-04-26 19:26:00,
2013-04-26 15:27:00,57.5,36.3,30.32,SSE,165,2.0,17.0,45,0.00,,---,0.00,VWS V14.00,2013-04-26 19:27:00,
2013-04-26 15:28:00,57.6,35.9,30.32,SSE,150,11.0,17.0,44,0.00,,---,0.00,VWS V14.00,2013-04-26 19:28:00,
2013-04-26 15:31:00,58.0,35.7,30.31,South,185,0.0,17.0,43,0.00,,---,0.00,VWS V14.00,2013-04-26 19:31:00,
2013-04-26 15:32:00,58.1,36.9,30.31,SSW,199,7.0,17.0,45,0.00,,---,0.00,VWS V14.00,2013-04-26 19:32:00,
2013-04-26 15:33:00,58.3,37.6,30.31,South,179,14.0,17.0,46,0.00,,---,0.00,VWS V14.00,2013-04-26 19:33:00,
2013-04-26 15:36:00,58.4,36.0,30.31,South,184,10.0,17.0,43,0.00,,---,0.00,VWS V14.00,2013-04-26 19:36:00,
2013-04-26 15:37:00,58.4,36.0,30.31,SSW,192,2.0,17.0,43,0.00,,---,0.00,VWS V14.00,2013-04-26 19:37:00,
2013-04-26 15:38:00,58.4,36.6,30.31,SSW,196,9.0,17.0,44,0.00,,---,0.00,VWS V14.00,2013-04-26 19:38:00,
2013-04-26 15:41:00,58.3,35.3,30.31,SE,144,2.0,17.0,42,0.00,,---,0.00,VWS V14.00,2013-04-26 19:41:00,
2013-04-26 15:42:00,58.3,34.7,30.31,SSW,196,2.0,17.0,41,0.00,,---,0.00,VWS V14.00,2013-04-26 19:42:00,
2013-04-26 15:43:00,58.4,34.8,30.31,SSE,150,7.0,17.0,41,0.00,,---,0.00,VWS V14.00,2013-04-26 19:43:00,
2013-04-26 15:46:00,58.4,34.2,30.30,SSW,209,18.0,18.0,40,0.00,,---,0.00,VWS V14.00,2013-04-26 19:46:00,
2013-04-26 15:47:00,58.3,35.3,30.30,SSE,165,4.0,20.0,42,0.00,,---,0.00,VWS V14.00,2013-04-26 19:47:00,
2013-04-26 15:48:00,58.3,34.7,30.30,SW,230,8.0,20.0,41,0.00,,---,0.00,VWS V14.00,2013-04-26 19:48:00,
2013-04-26 15:51:00,58.0,35.1,30.30,SSW,210,9.0,20.0,42,0.00,,---,0.00,VWS V14.00,2013-04-26 19:51:00,
2013-04-26 15:52:00,57.8,34.9,30.30,SSW,203,6.0,20.0,42,0.00,,---,0.00,VWS V14.00,2013-04-26 19:52:00,
2013-04-26 15:53:00,57.8,34.9,30.30,SSW,202,7.0,20.0,42,0.00,,---,0.00,VWS V14.00,2013-04-26 19:53:00,
2013-04-26 15:56:00,58.3,35.9,30.30,South,172,20.0,20.0,43,0.00,,---,0.00,VWS V14.00,2013-04-26 19:56:00,
2013-04-26 15:57:00,58.3,35.9,30.30,SSE,147,6.0,20.0,43,0.00,,---,0.00,VWS V14.00,2013-04-26 19:57:00,
2013-04-26 15:58:00,58.3,35.9,30.30,SE,130,9.0,20.0,43,0.00,,---,0.00,VWS V14.00,2013-04-26 19:58:00,
2013-04-26 16:01:00,58.4,34.8,30.30,SE,143,7.0,10.0,41,0.00,,---,0.00,VWS V14.00,2013-04-26 20:01:00,
2013-04-26 16:02:00,58.4,34.8,30.30,SSE,164,4.0,18.0,41,0.00,,---,0.00,VWS V14.00,2013-04-26 20:02:00,
2013-04-26 16:03:00,58.4,34.8,30.30,South,189,4.0,18.0,41,0.00,,---,0.00,VWS V14.00,2013-04-26 20:03:00,
2013-04-26 16:07:00,58.7,35.7,30.30,SSE,161,2.0,18.0,42,0.00,,---,0.00,VWS V14.00,2013-04-26 20:07:00,
2013-04-26 16:08:00,58.7,35.1,30.30,SSE,148,8.0,18.0,41,0.00,,---,0.00,VWS V14.00,2013-04-26 20:08:00,
2013-04-26 16:12:00,58.9,35.3,30.30,SE,140,2.0,18.0,41,0.00,,---,0.00,VWS V14.00,2013-04-26 20:12:00,
2013-04-26 16:13:00,59.0,36.6,30.30,SSE,161,9.0,18.0,43,0.00,,---,0.00,VWS V14.00,2013-04-26 20:13:00,
2013-04-26 16:17:00,59.3,34.4,30.29,South,178,1.0,18.0,39,0.00,,---,0.00,VWS V14.00,2013-04-26 20:17:00,
2013-04-26 16:18:00,59.3,35.0,30.29,SW,223,8.0,18.0,40,0.00,,---,0.00,VWS V14.00,2013-04-26 20:18:00,
2013-04-26 16:19:00,59.2,35.5,30.29,South,189,7.0,18.0,41,0.00,,---,0.00,VWS V14.00,2013-04-26 20:19:00,
2013-04-26 16:22:00,58.9,34.0,30.29,SSW,195,4.0,20.0,39,0.00,,---,0.00,VWS V14.00,2013-04-26 20:22:00,
2013-04-26 16:23:00,58.7,35.7,30.29,South,172,7.0,20.0,42,0.00,,---,0.00,VWS V14.00,2013-04-26 20:23:00,
2013-04-26 16:24:00,58.9,35.9,30.29,SSW,200,13.0,20.0,42,0.00,,---,0.00,VWS V14.00,2013-04-26 20:24:00,
2013-04-26 16:27:00,58.7,33.8,30.29,SE,141,7.0,20.0,39,0.00,,---,0.00,VWS V14.00,2013-04-26 20:27:00,
2013-04-26 16:28:00,58.9,34.6,30.29,SE,143,4.0,20.0,40,0.00,,---,0.00,VWS V14.00,2013-04-26 20:28:00,
2013-04-26 16:30:00,59.0,34.7,30.29,SW,234,7.0,20.0,40,0.00,,---,0.00,VWS V14.00,2013-04-26 20:30:00,
2013-04-26 16:32:00,58.9,33.4,30.28,SSW,202,7.0,20.0,38,0.00,,---,0.00,VWS V14.00,2013-04-26 20:32:00,
2013-04-26 16:33:00,58.9,33.4,30.28,SW,226,9.0,20.0,38,0.00,,---,0.00,VWS V14.00,2013-04-26 20:33:00,
2013-04-26 16:34:00,58.9,33.4,30.28,East,89,9.0,20.0,38,0.00,,---,0.00,VWS V14.00,2013-04-26 20:34:00,
2013-04-26 16:35:00,58.9,33.4,30.28,ESE,123,4.0,20.0,38,0.00,,---,0.00,VWS V14.00,2013-04-26 20:35:00,
2013-04-26 16:37:00,59.2,35.5,30.28,SSW,202,6.0,20.0,41,0.00,,---,0.00,VWS V14.00,2013-04-26 20:37:00,
2013-04-26 16:38:00,59.3,36.2,30.28,East,96,4.0,20.0,42,0.00,,---,0.00,VWS V14.00,2013-04-26 20:38:00,
2013-04-26 16:39:00,59.3,36.2,30.28,SE,140,7.0,20.0,42,0.00,,---,0.00,VWS V14.00,2013-04-26 20:39:00,
2013-04-26 16:41:00,59.6,37.1,30.28,SSW,208,1.0,20.0,43,0.00,,---,0.00,VWS V14.00,2013-04-26 20:41:00,
2013-04-26 16:42:00,59.8,35.5,30.28,SSW,208,14.0,20.0,40,0.00,,---,0.00,VWS V14.00,2013-04-26 20:42:00,
2013-04-26 16:44:00,59.8,36.1,30.28,SW,215,7.0,20.0,41,0.00,,---,0.00,VWS V14.00,2013-04-26 20:44:00,
2013-04-26 16:46:00,59.8,36.1,30.28,SSW,195,6.0,20.0,41,0.00,,---,0.00,VWS V14.00,2013-04-26 20:46:00,
2013-04-26 16:47:00,59.8,35.5,30.28,SSW,202,9.0,20.0,40,0.00,,---,0.00,VWS V14.00,2013-04-26 20:47:00,
2013-04-26 16:49:00,59.6,35.9,30.28,West,274,4.0,20.0,41,0.00,,---,0.00,VWS V14.00,2013-04-26 20:49:00,
2013-04-26 16:51:00,59.8,34.8,30.28,SSE,158,8.0,20.0,39,0.00,,---,0.00,VWS V14.00,2013-04-26 20:51:00,
2013-04-26 16:52:00,59.9,34.9,30.28,SW,216,10.0,20.0,39,0.00,,---,0.00,VWS V14.00,2013-04-26 20:52:00,
2013-04-26 16:54:00,59.8,34.2,30.28,South,191,9.0,20.0,38,0.00,,---,0.00,VWS V14.00,2013-04-26 20:54:00,
2013-04-26 16:55:00,59.8,34.8,30.28,SW,217,6.0,20.0,39,0.00,,---,0.00,VWS V14.00,2013-04-26 20:55:00,
2013-04-26 16:56:00,59.8,34.8,30.28,SSE,151,9.0,20.0,39,0.00,,---,0.00,VWS V14.00,2013-04-26 20:56:00,
2013-04-26 16:58:00,59.8,35.5,30.28,SSE,154,7.0,20.0,40,0.00,,---,0.00,VWS V14.00,2013-04-26 20:58:00,
2013-04-26 16:59:00,59.8,35.5,30.28,SSW,202,4.0,20.0,40,0.00,,---,0.00,VWS V14.00,2013-04-26 20:59:00,
2013-04-26 17:00:00,59.8,34.8,30.28,SSW,198,4.0,20.0,39,0.00,,---,0.00,VWS V14.00,2013-04-26 21:00:00,
2013-04-26 17:01:00,59.8,35.5,30.27,SW,230,7.0,20.0,40,0.00,,---,0.00,VWS V14.00,2013-04-26 21:01:00,
2013-04-26 17:03:00,59.6,35.3,30.27,SSW,202,11.0,16.0,40,0.00,,---,0.00,VWS V14.00,2013-04-26 21:03:00,
2013-04-26 17:04:00,59.3,34.4,30.27,WSW,248,2.0,16.0,39,0.00,,---,0.00,VWS V14.00,2013-04-26 21:04:00,
2013-04-26 17:05:00,59.3,35.0,30.27,SSW,205,11.0,16.0,40,0.00,,---,0.00,VWS V14.00,2013-04-26 21:05:00,
2013-04-26 17:06:00,59.2,35.5,30.27,SW,233,10.0,16.0,41,0.00,,---,0.00,VWS V14.00,2013-04-26 21:06:00,
2013-04-26 17:08:00,59.0,34.7,30.27,SSW,206,9.0,16.0,40,0.00,,---,0.00,VWS V14.00,2013-04-26 21:08:00,
2013-04-26 17:09:00,59.0,34.7,30.27,SSW,206,10.0,17.0,40,0.00,,---,0.00,VWS V14.00,2013-04-26 21:09:00,
2013-04-26 17:10:00,58.9,34.6,30.27,SSW,209,8.0,17.0,40,0.00,,---,0.00,VWS V14.00,2013-04-26 21:10:00,
2013-04-26 17:11:00,58.9,33.4,30.27,SW,226,9.0,17.0,38,0.00,,---,0.00,VWS V14.00,2013-04-26 21:11:00,
2013-04-26 17:13:00,58.9,34.0,30.27,SSW,208,10.0,17.0,39,0.00,,---,0.00,VWS V14.00,2013-04-26 21:13:00,
2013-04-26 17:14:00,58.9,34.0,30.27,South,188,4.0,17.0,39,0.00,,---,0.00,VWS V14.00,2013-04-26 21:14:00,
2013-04-26 17:15:00,58.9,34.0,30.27,SW,234,4.0,17.0,39,0.00,,---,0.00,VWS V14.00,2013-04-26 21:15:00,
2013-04-26 17:16:00,58.9,34.0,30.26,SW,232,8.0,17.0,39,0.00,,---,0.00,VWS V14.00,2013-04-26 21:16:00,
2013-04-26 17:18:00,59.0,34.7,30.26,SE,143,4.0,17.0,40,0.00,,---,0.00,VWS V14.00,2013-04-26 21:18:00,
2013-04-26 17:19:00,59.2,35.5,30.26,SSE,162,2.0,17.0,41,0.00,,---,0.00,VWS V14.00,2013-04-26 21:19:00,
2013-04-26 17:20:00,59.3,35.6,30.26,SSE,162,7.0,17.0,41,0.00,,---,0.00,VWS V14.00,2013-04-26 21:20:00,
2013-04-26 17:21:00,59.3,35.0,30.26,SSW,210,14.0,17.0,40,0.00,,---,0.00,VWS V14.00,2013-04-26 21:21:00,
2013-04-26 17:23:00,59.3,33.7,30.26,SSW,193,4.0,17.0,38,0.00,,---,0.00,VWS V14.00,2013-04-26 21:23:00,
2013-04-26 17:25:00,59.5,35.2,30.26,ESE,113,2.0,17.0,40,0.00,,---,0.00,VWS V14.00,2013-04-26 21:25:00,
2013-04-26 17:26:00,59.5,34.5,30.26,SSW,210,8.0,17.0,39,0.00,,---,0.00,VWS V14.00,2013-04-26 21:26:00,
2013-04-26 17:28:00,59.3,35.0,30.26,SSW,206,18.0,18.0,40,0.00,,---,0.00,VWS V14.00,2013-04-26 21:28:00,
2013-04-26 17:30:00,59.3,35.6,30.26,SSW,206,4.0,18.0,41,0.00,,---,0.00,VWS V14.00,2013-04-26 21:30:00,
2013-04-26 17:31:00,59.3,35.6,30.27,SSE,165,11.0,18.0,41,0.00,,---,0.00,VWS V14.00,2013-04-26 21:31:00,
2013-04-26 17:32:00,59.3,35.6,30.27,SW,219,6.0,18.0,41,0.00,,---,0.00,VWS V14.00,2013-04-26 21:32:00,
2013-04-26 17:33:00,59.3,34.4,30.27,SSW,202,9.0,18.0,39,0.00,,---,0.00,VWS V14.00,2013-04-26 21:33:00,
2013-04-26 17:35:00,59.3,34.4,30.27,SSW,208,8.0,18.0,39,0.00,,---,0.00,VWS V14.00,2013-04-26 21:35:00,
2013-04-26 17:36:00,59.3,34.4,30.27,West,261,9.0,18.0,39,0.00,,---,0.00,VWS V14.00,2013-04-26 21:36:00,
2013-04-26 17:37:00,59.3,34.4,30.27,South,172,15.0,18.0,39,0.00,,---,0.00,VWS V14.00,2013-04-26 21:37:00,
2013-04-26 17:39:00,59.3,34.4,30.27,ESE,112,7.0,18.0,39,0.00,,---,0.00,VWS V14.00,2013-04-26 21:39:00,
2013-04-26 17:40:00,59.3,34.4,30.27,SE,137,9.0,18.0,39,0.00,,---,0.00,VWS V14.00,2013-04-26 21:40:00,
2013-04-26 17:41:00,59.3,34.4,30.27,SW,216,10.0,18.0,39,0.00,,---,0.00,VWS V14.00,2013-04-26 21:41:00,
2013-04-26 17:42:00,59.3,34.4,30.27,SW,220,10.0,18.0,39,0.00,,---,0.00,VWS V14.00,2013-04-26 21:42:00,
2013-04-26 17:44:00,59.3,34.4,30.27,SSW,210,7.0,18.0,39,0.00,,---,0.00,VWS V14.00,2013-04-26 21:44:00,
2013-04-26 17:45:00,59.2,34.3,30.27,SSW,203,7.0,18.0,39,0.00,,---,0.00,VWS V14.00,2013-04-26 21:45:00,
2013-04-26 17:46:00,59.2,34.3,30.27,South,181,10.0,18.0,39,0.00,,---,0.00,VWS V14.00,2013-04-26 21:46:00,
2013-04-26 17:47:00,59.0,34.7,30.27,SW,232,7.0,18.0,40,0.00,,---,0.00,VWS V14.00,2013-04-26 21:47:00,
2013-04-26 17:50:00,58.9,34.6,30.27,SE,127,7.0,18.0,40,0.00,,---,0.00,VWS V14.00,2013-04-26 21:50:00,
2013-04-26 17:51:00,58.7,34.5,30.27,SSW,206,9.0,18.0,40,0.00,,---,0.00,VWS V14.00,2013-04-26 21:51:00,
2013-04-26 17:52:00,58.6,33.7,30.27,SSW,202,9.0,18.0,39,0.00,,---,0.00,VWS V14.00,2013-04-26 21:52:00,
2013-04-26 17:55:00,58.3,34.7,30.27,South,179,4.0,18.0,41,0.00,,---,0.00,VWS V14.00,2013-04-26 21:55:00,
2013-04-26 17:56:00,58.3,35.3,30.27,SW,215,9.0,18.0,42,0.00,,---,0.00,VWS V14.00,2013-04-26 21:56:00,
2013-04-26 17:57:00,58.3,35.3,30.27,SSW,203,10.0,18.0,42,0.00,,---,0.00,VWS V14.00,2013-04-26 21:57:00,
2013-04-26 18:00:00,58.3,34.7,30.27,SSW,193,8.0,18.0,41,0.00,,---,0.00,VWS V14.00,2013-04-26 22:00:00,
2013-04-26 18:01:00,58.3,34.7,30.27,SSW,209,2.0,18.0,41,0.00,,---,0.00,VWS V14.00,2013-04-26 22:01:00,
2013-04-26 18:02:00,58.4,34.8,30.27,SSW,209,0.0,8.0,41,0.00,,---,0.00,VWS V14.00,2013-04-26 22:02:00,
2013-04-26 18:05:00,58.4,35.4,30.27,South,191,6.0,16.0,42,0.00,,---,0.00,VWS V14.00,2013-04-26 22:05:00,
2013-04-26 18:07:00,58.6,35.0,30.27,SSW,199,16.0,22.0,41,0.00,,---,0.00,VWS V14.00,2013-04-26 22:07:00,
2013-04-26 18:10:00,58.6,34.4,30.27,SSW,196,9.0,22.0,40,0.00,,---,0.00,VWS V14.00,2013-04-26 22:10:00,
2013-04-26 18:12:00,58.6,35.0,30.27,South,175,2.0,22.0,41,0.00,,---,0.00,VWS V14.00,2013-04-26 22:12:00,
2013-04-26 18:15:00,58.6,35.6,30.28,SSW,210,10.0,22.0,42,0.00,,---,0.00,VWS V14.00,2013-04-26 22:15:00,
2013-04-26 18:17:00,58.6,35.0,30.28,SSW,209,11.0,22.0,41,0.00,,---,0.00,VWS V14.00,2013-04-26 22:17:00,
2013-04-26 18:20:00,58.6,34.4,30.28,SSE,162,4.0,22.0,40,0.00,,---,0.00,VWS V14.00,2013-04-26 22:20:00,
2013-04-26 18:22:00,58.6,35.0,30.28,South,178,10.0,22.0,41,0.00,,---,0.00,VWS V14.00,2013-04-26 22:22:00,
2013-04-26 18:23:00,58.6,35.0,30.28,SSW,205,10.0,22.0,41,0.00,,---,0.00,VWS V14.00,2013-04-26 22:23:00,
2013-04-26 18:25:00,58.7,35.1,30.28,SSW,206,7.0,22.0,41,0.00,,---,0.00,VWS V14.00,2013-04-26 22:25:00,
2013-04-26 18:27:00,58.7,35.1,30.28,SE,136,8.0,22.0,41,0.00,,---,0.00,VWS V14.00,2013-04-26 22:27:00,
2013-04-26 18:28:00,58.7,34.5,30.28,SW,217,10.0,22.0,40,0.00,,---,0.00,VWS V14.00,2013-04-26 22:28:00,
2013-04-26 18:30:00,58.7,34.5,30.28,West,265,8.0,22.0,40,0.00,,---,0.00,VWS V14.00,2013-04-26 22:30:00,
2013-04-26 18:32:00,58.4,33.6,30.28,SSW,206,13.0,22.0,39,0.00,,---,0.00,VWS V14.00,2013-04-26 22:32:00,
2013-04-26 18:33:00,58.3,33.5,30.28,SSW,208,9.0,22.0,39,0.00,,---,0.00,VWS V14.00,2013-04-26 22:33:00,
2013-04-26 18:35:00,58.1,33.9,30.28,SSE,167,9.0,22.0,40,0.00,,---,0.00,VWS V14.00,2013-04-26 22:35:00,
2013-04-26 18:37:00,58.0,33.8,30.28,SSW,206,6.0,22.0,40,0.00,,---,0.00,VWS V14.00,2013-04-26 22:37:00,
2013-04-26 18:38:00,58.0,33.8,30.28,South,171,10.0,22.0,40,0.00,,---,0.00,VWS V14.00,2013-04-26 22:38:00,
2013-04-26 18:39:00,57.8,33.7,30.28,SSW,205,8.0,22.0,40,0.00,,---,0.00,VWS V14.00,2013-04-26 22:39:00,
2013-04-26 18:40:00,57.8,34.3,30.28,SSW,206,6.0,22.0,41,0.00,,---,0.00,VWS V14.00,2013-04-26 22:40:00,
2013-04-26 18:42:00,57.6,34.1,30.28,South,182,7.0,22.0,41,0.00,,---,0.00,VWS V14.00,2013-04-26 22:42:00,
2013-04-26 18:43:00,57.6,34.1,30.28,South,175,2.0,22.0,41,0.00,,---,0.00,VWS V14.00,2013-04-26 22:43:00,
2013-04-26 18:44:00,57.6,34.1,30.28,SSW,206,0.0,22.0,41,0.00,,---,0.00,VWS V14.00,2013-04-26 22:44:00,
2013-04-26 18:46:00,57.6,34.7,30.27,SSW,213,9.0,22.0,42,0.00,,---,0.00,VWS V14.00,2013-04-26 22:46:00,
2013-04-26 18:47:00,57.6,34.1,30.27,SSW,193,2.0,22.0,41,0.00,,---,0.00,VWS V14.00,2013-04-26 22:47:00,
2013-04-26 18:48:00,57.8,34.3,30.27,SSW,200,2.0,22.0,41,0.00,,---,0.00,VWS V14.00,2013-04-26 22:48:00,
2013-04-26 18:49:00,57.8,34.3,30.27,South,189,6.0,22.0,41,0.00,,---,0.00,VWS V14.00,2013-04-26 22:49:00,
2013-04-26 18:51:00,58.0,34.5,30.27,SW,215,8.0,22.0,41,0.00,,---,0.00,VWS V14.00,2013-04-26 22:51:00,
2013-04-26 18:52:00,58.1,34.5,30.27,SW,216,7.0,22.0,41,0.00,,---,0.00,VWS V14.00,2013-04-26 22:52:00,
2013-04-26 18:53:00,58.1,34.5,30.27,SSE,160,14.0,22.0,41,0.00,,---,0.00,VWS V14.00,2013-04-26 22:53:00,
2013-04-26 18:54:00,58.3,34.7,30.27,SSW,198,7.0,22.0,41,0.00,,---,0.00,VWS V14.00,2013-04-26 22:54:00,
2013-04-26 18:56:00,58.3,34.1,30.27,SW,224,6.0,22.0,40,0.00,,---,0.00,VWS V14.00,2013-04-26 22:56:00,
2013-04-26 18:57:00,58.3,34.1,30.27,SSW,200,1.0,22.0,40,0.00,,---,0.00,VWS V14.00,2013-04-26 22:57:00,
2013-04-26 18:58:00,58.4,34.2,30.27,SSW,202,9.0,22.0,40,0.00,,---,0.00,VWS V14.00,2013-04-26 22:58:00,
2013-04-26 18:59:00,58.4,34.8,30.27,SSW,208,6.0,22.0,41,0.00,,---,0.00,VWS V14.00,2013-04-26 22:59:00,
2013-04-26 19:01:00,58.4,34.8,30.27,South,176,6.0,22.0,41,0.00,,---,0.00,VWS V14.00,2013-04-26 23:01:00,
2013-04-26 19:02:00,58.4,34.2,30.27,SE,145,6.0,7.0,40,0.00,,---,0.00,VWS V14.00,2013-04-26 23:02:00,
2013-04-26 19:04:00,58.4,34.8,30.27,SSW,200,7.0,11.0,41,0.00,,---,0.00,VWS V14.00,2013-04-26 23:04:00,
2013-04-26 19:06:00,58.3,34.7,30.27,SSW,202,4.0,11.0,41,0.00,,---,0.00,VWS V14.00,2013-04-26 23:06:00,
2013-04-26 19:07:00,58.3,34.7,30.27,SSW,209,11.0,11.0,41,0.00,,---,0.00,VWS V14.00,2013-04-26 23:07:00,
2013-04-26 19:09:00,58.3,34.7,30.27,SSW,203,8.0,11.0,41,0.00,,---,0.00,VWS V14.00,2013-04-26 23:09:00,
2013-04-26 19:12:00,58.0,34.5,30.27,SSW,209,7.0,11.0,41,0.00,,---,0.00,VWS V14.00,2013-04-26 23:12:00,
2013-04-26 19:13:00,58.0,35.1,30.27,SSW,193,4.0,11.0,42,0.00,,---,0.00,VWS V14.00,2013-04-26 23:13:00,
2013-04-26 19:14:00,57.8,34.9,30.27,SSW,210,10.0,11.0,42,0.00,,---,0.00,VWS V14.00,2013-04-26 23:14:00,
2013-04-26 19:17:00,57.6,34.7,30.26,South,185,9.0,11.0,42,0.00,,---,0.00,VWS V14.00,2013-04-26 23:17:00,
2013-04-26 19:18:00,57.5,35.2,30.26,South,189,8.0,11.0,43,0.00,,---,0.00,VWS V14.00,2013-04-26 23:18:00,
2013-04-26 19:19:00,57.5,35.2,30.26,SSW,199,11.0,13.0,43,0.00,,---,0.00,VWS V14.00,2013-04-26 23:19:00,
2013-04-26 19:20:00,57.3,35.0,30.26,SSW,200,9.0,14.0,43,0.00,,---,0.00,VWS V14.00,2013-04-26 23:20:00,
2013-04-26 19:22:00,57.3,34.4,30.26,SSE,150,0.0,14.0,42,0.00,,---,0.00,VWS V14.00,2013-04-26 23:22:00,
2013-04-26 19:23:00,57.2,34.9,30.26,SSE,151,0.0,14.0,43,0.00,,---,0.00,VWS V14.00,2013-04-26 23:23:00,
2013-04-26 19:24:00,57.2,34.9,30.26,SSE,151,7.0,14.0,43,0.00,,---,0.00,VWS V14.00,2013-04-26 23:24:00,
2013-04-26 19:25:00,57.2,36.1,30.26,South,174,0.0,14.0,45,0.00,,---,0.00,VWS V14.00,2013-04-26 23:25:00,
2013-04-26 19:27:00,57.2,37.2,30.26,South,182,8.0,14.0,47,0.00,,---,0.00,VWS V14.00,2013-04-26 23:27:00,
2013-04-26 19:28:00,57.2,37.2,30.26,SSE,150,7.0,14.0,47,0.00,,---,0.00,VWS V14.00,2013-04-26 23:28:00,
2013-04-26 19:29:00,57.2,37.7,30.26,SSE,151,6.0,14.0,48,0.00,,---,0.00,VWS V14.00,2013-04-26 23:29:00,
2013-04-26 19:30:00,57.2,37.7,30.26,SE,136,2.0,14.0,48,0.00,,---,0.00,VWS V14.00,2013-04-26 23:30:00,
2013-04-26 19:32:00,57.0,37.5,30.26,SSE,161,4.0,14.0,48,0.00,,---,0.00,VWS V14.00,2013-04-26 23:32:00,
2013-04-26 19:34:00,57.0,38.0,30.26,SSE,151,0.0,14.0,49,0.00,,---,0.00,VWS V14.00,2013-04-26 23:34:00,
2013-04-26 19:35:00,57.0,38.0,30.26,SSE,157,2.0,14.0,49,0.00,,---,0.00,VWS V14.00,2013-04-26 23:35:00,
2013-04-26 19:37:00,56.9,38.0,30.26,SE,144,0.0,14.0,49,0.00,,---,0.00,VWS V14.00,2013-04-26 23:37:00,
2013-04-26 19:39:00,56.7,37.8,30.26,SE,138,1.0,14.0,49,0.00,,---,0.00,VWS V14.00,2013-04-26 23:39:00,
2013-04-26 19:40:00,56.7,38.3,30.26,SSE,147,2.0,14.0,50,0.00,,---,0.00,VWS V14.00,2013-04-26 23:40:00,
2013-04-26 19:42:00,56.6,38.2,30.26,SSE,150,4.0,14.0,50,0.00,,---,0.00,VWS V14.00,2013-04-26 23:42:00,
2013-04-26 19:44:00,56.6,38.2,30.26,SE,143,1.0,14.0,50,0.00,,---,0.00,VWS V14.00,2013-04-26 23:44:00,
2013-04-26 19:45:00,56.6,38.2,30.26,SSE,158,2.0,14.0,50,0.00,,---,0.00,VWS V14.00,2013-04-26 23:45:00,
2013-04-26 19:48:00,56.5,38.6,30.26,South,169,1.0,14.0,51,0.00,,---,0.00,VWS V14.00,2013-04-26 23:48:00,
2013-04-26 19:50:00,56.5,38.6,30.26,SE,144,6.0,14.0,51,0.00,,---,0.00,VWS V14.00,2013-04-26 23:50:00,
2013-04-26 19:51:00,56.5,38.6,30.26,SE,141,6.0,14.0,51,0.00,,---,0.00,VWS V14.00,2013-04-26 23:51:00,
2013-04-26 19:53:00,56.3,38.4,30.26,SSE,151,0.0,14.0,51,0.00,,---,0.00,VWS V14.00,2013-04-26 23:53:00,
2013-04-26 20:05:00,55.7,39.3,30.26,SE,124,6.0,8.0,54,0.00,,---,0.00,VWS V14.00,2013-04-27 00:05:00,
2013-04-26 20:06:00,55.6,39.2,30.26,SE,126,4.0,8.0,54,0.00,,---,0.00,VWS V14.00,2013-04-27 00:06:00,
2013-04-26 20:11:00,55.1,39.2,30.26,SE,131,2.0,8.0,55,0.00,,---,0.00,VWS V14.00,2013-04-27 00:11:00,
2013-04-26 20:16:00,54.8,39.0,30.26,South,175,0.0,8.0,55,0.00,,---,0.00,VWS V14.00,2013-04-27 00:16:00,
2013-04-26 20:21:00,54.5,39.1,30.26,SE,144,0.0,8.0,56,0.00,,---,0.00,VWS V14.00,2013-04-27 00:21:00,
2013-04-26 20:22:00,54.4,39.0,30.26,SE,144,0.0,8.0,56,0.00,,---,0.00,VWS V14.00,2013-04-27 00:22:00,
2013-04-26 20:26:00,54.1,38.8,30.26,SE,138,7.0,10.0,56,0.00,,---,0.00,VWS V14.00,2013-04-27 00:26:00,
2013-04-26 20:27:00,54.1,38.8,30.26,SSE,151,7.0,10.0,56,0.00,,---,0.00,VWS V14.00,2013-04-27 00:27:00,
2013-04-26 20:31:00,53.5,38.7,30.27,SE,138,6.0,10.0,57,0.00,,---,0.00,VWS V14.00,2013-04-27 00:31:00,
2013-04-26 20:32:00,53.3,38.5,30.27,SSE,150,2.0,10.0,57,0.00,,---,0.00,VWS V14.00,2013-04-27 00:32:00,
2013-04-26 20:36:00,53.1,38.3,30.27,SSE,157,0.0,10.0,57,0.00,,---,0.00,VWS V14.00,2013-04-27 00:36:00,
2013-04-26 20:37:00,53.1,38.3,30.27,SSE,150,1.0,10.0,57,0.00,,---,0.00,VWS V14.00,2013-04-27 00:37:00,
2013-04-26 20:38:00,52.9,38.5,30.27,SE,143,2.0,10.0,58,0.00,,---,0.00,VWS V14.00,2013-04-27 00:38:00,
2013-04-26 20:42:00,52.6,38.3,30.27,SE,143,0.0,10.0,58,0.00,,---,0.00,VWS V14.00,2013-04-27 00:42:00,
2013-04-26 20:43:00,52.6,38.3,30.27,SE,143,0.0,10.0,58,0.00,,---,0.00,VWS V14.00,2013-04-27 00:43:00,
2013-04-26 20:47:00,52.3,38.0,30.27,SE,140,0.0,10.0,58,0.00,,---,0.00,VWS V14.00,2013-04-27 00:47:00,
2013-04-26 20:48:00,52.2,38.3,30.27,SE,137,0.0,10.0,59,0.00,,---,0.00,VWS V14.00,2013-04-27 00:48:00,
2013-04-26 20:52:00,51.9,38.0,30.27,SE,141,0.0,10.0,59,0.00,,---,0.00,VWS V14.00,2013-04-27 00:52:00,
2013-04-26 20:53:00,51.9,38.0,30.27,SE,133,2.0,10.0,59,0.00,,---,0.00,VWS V14.00,2013-04-27 00:53:00,
2013-04-26 20:57:00,51.6,38.2,30.27,SSE,151,0.0,10.0,60,0.00,,---,0.00,VWS V14.00,2013-04-27 00:57:00,
2013-04-26 20:58:00,51.4,38.4,30.27,SSE,151,0.0,10.0,61,0.00,,---,0.00,VWS V14.00,2013-04-27 00:58:00,
2013-04-26 21:02:00,51.1,38.1,30.28,SSE,148,0.0,6.0,61,0.00,,---,0.00,VWS V14.00,2013-04-27 01:02:00,
2013-04-26 21:03:00,51.1,38.1,30.28,SSE,150,0.0,6.0,61,0.00,,---,0.00,VWS V14.00,2013-04-27 01:03:00,
2013-04-26 21:07:00,50.8,38.3,30.28,SSE,147,1.0,6.0,62,0.00,,---,0.00,VWS V14.00,2013-04-27 01:07:00,
2013-04-26 21:08:00,50.8,38.3,30.28,SSE,147,1.0,6.0,62,0.00,,---,0.00,VWS V14.00,2013-04-27 01:08:00,
2013-04-26 21:09:00,50.8,38.3,30.28,SSE,148,0.0,6.0,62,0.00,,---,0.00,VWS V14.00,2013-04-27 01:09:00,
2013-04-26 21:13:00,50.7,38.2,30.28,SE,141,0.0,6.0,62,0.00,,---,0.00,VWS V14.00,2013-04-27 01:13:00,
2013-04-26 21:14:00,50.5,38.0,30.28,SE,141,0.0,6.0,62,0.00,,---,0.00,VWS V14.00,2013-04-27 01:14:00,
2013-04-26 21:18:00,50.4,37.9,30.27,SE,145,0.0,6.0,62,0.00,,---,0.00,VWS V14.00,2013-04-27 01:18:00,
2013-04-26 21:19:00,50.4,37.9,30.27,SE,145,0.0,6.0,62,0.00,,---,0.00,VWS V14.00,2013-04-27 01:19:00,
2013-04-26 21:23:00,50.1,37.6,30.27,SSE,154,0.0,6.0,62,0.00,,---,0.00,VWS V14.00,2013-04-27 01:23:00,
2013-04-26 21:24:00,50.1,37.6,30.27,SSE,154,0.0,6.0,62,0.00,,---,0.00,VWS V14.00,2013-04-27 01:24:00,
2013-04-26 21:28:00,49.9,37.8,30.27,SSE,155,0.0,6.0,63,0.00,,---,0.00,VWS V14.00,2013-04-27 01:28:00,
2013-04-26 21:29:00,49.9,37.8,30.27,SSE,155,0.0,6.0,63,0.00,,---,0.00,VWS V14.00,2013-04-27 01:29:00,
2013-04-26 21:33:00,49.6,37.5,30.28,SSE,151,0.0,6.0,63,0.00,,---,0.00,VWS V14.00,2013-04-27 01:33:00,
2013-04-26 21:34:00,49.6,37.5,30.28,SSE,151,0.0,6.0,63,0.00,,---,0.00,VWS V14.00,2013-04-27 01:34:00,
2013-04-26 21:35:00,49.6,37.5,30.28,SSE,151,0.0,6.0,63,0.00,,---,0.00,VWS V14.00,2013-04-27 01:35:00,
2013-04-26 21:38:00,49.5,37.4,30.28,SSE,158,0.0,6.0,63,0.00,,---,0.00,VWS V14.00,2013-04-27 01:38:00,
2013-04-26 21:39:00,49.5,37.8,30.28,SSE,158,0.0,6.0,64,0.00,,---,0.00,VWS V14.00,2013-04-27 01:39:00,
2013-04-26 21:40:00,49.4,37.8,30.28,SSE,158,0.0,6.0,64,0.00,,---,0.00,VWS V14.00,2013-04-27 01:40:00,
2013-04-26 21:43:00,49.2,37.6,30.28,SSE,158,0.0,6.0,64,0.00,,---,0.00,VWS V14.00,2013-04-27 01:43:00,
2013-04-26 21:44:00,49.2,37.6,30.28,SSE,158,0.0,6.0,64,0.00,,---,0.00,VWS V14.00,2013-04-27 01:44:00,
2013-04-26 21:45:00,49.2,37.6,30.28,SSE,157,0.0,6.0,64,0.00,,---,0.00,VWS V14.00,2013-04-27 01:45:00,
2013-04-26 21:48:00,49.1,37.5,30.28,SSE,157,0.0,6.0,64,0.00,,---,0.00,VWS V14.00,2013-04-27 01:48:00,
2013-04-26 21:49:00,49.1,37.5,30.28,SSE,157,0.0,6.0,64,0.00,,---,0.00,VWS V14.00,2013-04-27 01:49:00,
2013-04-26 21:50:00,48.9,37.3,30.28,SSE,155,0.0,6.0,64,0.00,,---,0.00,VWS V14.00,2013-04-27 01:50:00,
2013-04-26 21:53:00,48.6,37.4,30.28,SSE,147,0.0,6.0,65,0.00,,---,0.00,VWS V14.00,2013-04-27 01:53:00,
2013-04-26 21:54:00,48.6,37.4,30.28,SSE,147,0.0,6.0,65,0.00,,---,0.00,VWS V14.00,2013-04-27 01:54:00,
2013-04-26 21:55:00,48.6,37.4,30.28,SSE,157,6.0,6.0,65,0.00,,---,0.00,VWS V14.00,2013-04-27 01:55:00,
2013-04-26 21:59:00,48.3,37.5,30.28,SE,138,0.0,6.0,66,0.00,,---,0.00,VWS V14.00,2013-04-27 01:59:00,
2013-04-26 22:00:00,48.2,37.4,30.28,SE,138,0.0,6.0,66,0.00,,---,0.00,VWS V14.00,2013-04-27 02:00:00,
2013-04-26 22:04:00,48.0,37.6,30.28,SSE,151,6.0,6.0,67,0.00,,---,0.00,VWS V14.00,2013-04-27 02:04:00,
2013-04-26 22:05:00,47.9,37.5,30.28,SSE,151,0.0,6.0,67,0.00,,---,0.00,VWS V14.00,2013-04-27 02:05:00,
2013-04-26 22:06:00,47.9,37.5,30.28,SSE,151,0.0,6.0,67,0.00,,---,0.00,VWS V14.00,2013-04-27 02:06:00,
2013-04-26 22:09:00,47.7,37.3,30.28,SSE,150,0.0,6.0,67,0.00,,---,0.00,VWS V14.00,2013-04-27 02:09:00,
2013-04-26 22:10:00,47.7,37.3,30.28,SSE,150,0.0,6.0,67,0.00,,---,0.00,VWS V14.00,2013-04-27 02:10:00,
2013-04-26 22:11:00,47.7,37.3,30.28,SSE,150,0.0,6.0,67,0.00,,---,0.00,VWS V14.00,2013-04-27 02:11:00,
2013-04-26 22:14:00,47.6,37.2,30.28,SSE,151,0.0,6.0,67,0.00,,---,0.00,VWS V14.00,2013-04-27 02:14:00,
2013-04-26 22:16:00,47.6,37.6,30.28,SSE,151,0.0,6.0,68,0.00,,---,0.00,VWS V14.00,2013-04-27 02:16:00,
2013-04-26 22:19:00,47.4,37.4,30.28,South,172,2.0,6.0,68,0.00,,---,0.00,VWS V14.00,2013-04-27 02:19:00,
2013-04-26 22:21:00,47.3,37.3,30.28,SSE,150,0.0,6.0,68,0.00,,---,0.00,VWS V14.00,2013-04-27 02:21:00,
2013-04-26 22:24:00,47.1,37.1,30.28,SSE,150,0.0,6.0,68,0.00,,---,0.00,VWS V14.00,2013-04-27 02:24:00,
2013-04-26 22:25:00,47.1,37.1,30.28,SSE,150,0.0,6.0,68,0.00,,---,0.00,VWS V14.00,2013-04-27 02:25:00,
2013-04-26 22:26:00,47.1,37.1,30.28,SSE,150,0.0,6.0,68,0.00,,---,0.00,VWS V14.00,2013-04-27 02:26:00,
2013-04-26 22:29:00,47.0,37.4,30.28,SSE,150,0.0,6.0,69,0.00,,---,0.00,VWS V14.00,2013-04-27 02:29:00,
2013-04-26 22:30:00,47.0,37.4,30.28,SSE,150,0.0,6.0,69,0.00,,---,0.00,VWS V14.00,2013-04-27 02:30:00,
2013-04-26 22:31:00,47.0,37.4,30.28,SSE,148,0.0,6.0,69,0.00,,---,0.00,VWS V14.00,2013-04-27 02:31:00,
2013-04-26 22:34:00,46.8,37.2,30.28,SSE,148,0.0,6.0,69,0.00,,---,0.00,VWS V14.00,2013-04-27 02:34:00,
2013-04-26 22:35:00,46.8,37.2,30.28,SSE,148,0.0,6.0,69,0.00,,---,0.00,VWS V14.00,2013-04-27 02:35:00,
2013-04-26 22:36:00,46.7,37.1,30.28,SSE,148,0.0,6.0,69,0.00,,---,0.00,VWS V14.00,2013-04-27 02:36:00,
2013-04-26 22:37:00,46.7,37.1,30.28,SSE,148,0.0,6.0,69,0.00,,---,0.00,VWS V14.00,2013-04-27 02:37:00,
2013-04-26 22:39:00,46.5,36.9,30.28,SSE,148,0.0,6.0,69,0.00,,---,0.00,VWS V14.00,2013-04-27 02:39:00,
2013-04-26 22:40:00,46.5,36.9,30.28,SSE,148,0.0,6.0,69,0.00,,---,0.00,VWS V14.00,2013-04-27 02:40:00,
2013-04-26 22:41:00,46.5,36.9,30.28,SSE,148,0.0,6.0,69,0.00,,---,0.00,VWS V14.00,2013-04-27 02:41:00,
2013-04-26 22:42:00,46.5,36.9,30.28,SSE,148,0.0,6.0,69,0.00,,---,0.00,VWS V14.00,2013-04-27 02:42:00,
2013-04-26 22:44:00,46.4,36.8,30.28,SSE,148,0.0,6.0,69,0.00,,---,0.00,VWS V14.00,2013-04-27 02:44:00,
2013-04-26 22:45:00,46.4,36.8,30.28,SSE,148,0.0,6.0,69,0.00,,---,0.00,VWS V14.00,2013-04-27 02:45:00,
2013-04-26 22:46:00,46.2,36.6,30.28,SSE,148,0.0,6.0,69,0.00,,---,0.00,VWS V14.00,2013-04-27 02:46:00,
2013-04-26 22:47:00,46.2,36.6,30.28,SSE,148,0.0,6.0,69,0.00,,---,0.00,VWS V14.00,2013-04-27 02:47:00,
2013-04-26 22:50:00,46.2,36.6,30.28,SSE,148,0.0,6.0,69,0.00,,---,0.00,VWS V14.00,2013-04-27 02:50:00,
2013-04-26 22:51:00,46.1,36.5,30.28,SSE,148,0.0,6.0,69,0.00,,---,0.00,VWS V14.00,2013-04-27 02:51:00,
2013-04-26 22:52:00,46.1,36.5,30.28,SSE,148,0.0,6.0,69,0.00,,---,0.00,VWS V14.00,2013-04-27 02:52:00,
2013-04-26 22:55:00,46.0,36.4,30.28,SSE,148,0.0,6.0,69,0.00,,---,0.00,VWS V14.00,2013-04-27 02:55:00,
2013-04-26 22:56:00,46.0,36.8,30.28,SSE,148,0.0,6.0,70,0.00,,---,0.00,VWS V14.00,2013-04-27 02:56:00,
2013-04-26 22:57:00,45.8,36.6,30.28,SSE,148,0.0,6.0,70,0.00,,---,0.00,VWS V14.00,2013-04-27 02:57:00,
2013-04-26 23:00:00,45.8,36.6,30.28,SSE,148,0.0,6.0,70,0.00,,---,0.00,VWS V14.00,2013-04-27 03:00:00,
2013-04-26 23:01:00,45.7,36.5,30.29,SSE,148,0.0,6.0,70,0.00,,---,0.00,VWS V14.00,2013-04-27 03:01:00,
2013-04-26 23:02:00,45.7,36.5,30.29,SSE,148,0.0,0.0,70,0.00,,---,0.00,VWS V14.00,2013-04-27 03:02:00,
2013-04-26 23:03:00,45.7,36.5,30.29,SSE,148,0.0,0.0,70,0.00,,---,0.00,VWS V14.00,2013-04-27 03:03:00,
2013-04-26 23:05:00,45.5,36.3,30.29,SSE,148,0.0,0.0,70,0.00,,---,0.00,VWS V14.00,2013-04-27 03:05:00,
2013-04-26 23:06:00,45.5,36.3,30.29,SSE,148,0.0,0.0,70,0.00,,---,0.00,VWS V14.00,2013-04-27 03:06:00,
2013-04-26 23:07:00,45.5,36.3,30.29,SSE,148,0.0,0.0,70,0.00,,---,0.00,VWS V14.00,2013-04-27 03:07:00,
2013-04-26 23:08:00,45.5,36.3,30.29,SSE,148,0.0,0.0,70,0.00,,---,0.00,VWS V14.00,2013-04-27 03:08:00,
2013-04-26 23:10:00,45.4,36.6,30.29,SSE,148,0.0,0.0,71,0.00,,---,0.00,VWS V14.00,2013-04-27 03:10:00,
2013-04-26 23:11:00,45.4,36.6,30.29,SSE,148,0.0,0.0,71,0.00,,---,0.00,VWS V14.00,2013-04-27 03:11:00,
2013-04-26 23:12:00,45.4,36.6,30.29,SSE,148,0.0,0.0,71,0.00,,---,0.00,VWS V14.00,2013-04-27 03:12:00,
2013-04-26 23:13:00,45.2,36.4,30.29,SSE,148,0.0,0.0,71,0.00,,---,0.00,VWS V14.00,2013-04-27 03:13:00,
2013-04-26 23:15:00,45.2,36.4,30.29,SSE,148,0.0,0.0,71,0.00,,---,0.00,VWS V14.00,2013-04-27 03:15:00,
2013-04-26 23:16:00,45.2,36.4,30.28,SSE,148,0.0,0.0,71,0.00,,---,0.00,VWS V14.00,2013-04-27 03:16:00,
2013-04-26 23:17:00,45.1,36.3,30.28,SSE,148,0.0,0.0,71,0.00,,---,0.00,VWS V14.00,2013-04-27 03:17:00,
2013-04-26 23:18:00,45.1,36.3,30.28,SSE,148,0.0,0.0,71,0.00,,---,0.00,VWS V14.00,2013-04-27 03:18:00,
2013-04-26 23:20:00,45.1,36.6,30.28,SSE,148,0.0,0.0,72,0.00,,---,0.00,VWS V14.00,2013-04-27 03:20:00,
2013-04-26 23:21:00,44.9,36.1,30.28,SSE,148,0.0,0.0,71,0.00,,---,0.00,VWS V14.00,2013-04-27 03:21:00,
2013-04-26 23:22:00,44.9,36.4,30.28,SSE,148,0.0,0.0,72,0.00,,---,0.00,VWS V14.00,2013-04-27 03:22:00,
2013-04-26 23:23:00,44.9,36.1,30.28,SSE,148,0.0,0.0,71,0.00,,---,0.00,VWS V14.00,2013-04-27 03:23:00,
2013-04-26 23:25:00,44.8,36.0,30.28,SSE,148,0.0,0.0,71,0.00,,---,0.00,VWS V14.00,2013-04-27 03:25:00,
2013-04-26 23:26:00,44.8,36.0,30.28,SSE,148,0.0,0.0,71,0.00,,---,0.00,VWS V14.00,2013-04-27 03:26:00,
2013-04-26 23:27:00,44.8,36.0,30.28,SSE,148,0.0,0.0,71,0.00,,---,0.00,VWS V14.00,2013-04-27 03:27:00,
2013-04-26 23:28:00,44.6,35.8,30.28,SSE,148,0.0,0.0,71,0.00,,---,0.00,VWS V14.00,2013-04-27 03:28:00,
2013-04-26 23:31:00,44.6,35.8,30.28,SSE,148,0.0,0.0,71,0.00,,---,0.00,VWS V14.00,2013-04-27 03:31:00,
2013-04-26 23:32:00,44.5,35.7,30.28,SSE,148,0.0,0.0,71,0.00,,---,0.00,VWS V14.00,2013-04-27 03:32:00,
2013-04-26 23:33:00,44.5,35.7,30.28,SSE,148,0.0,0.0,71,0.00,,---,0.00,VWS V14.00,2013-04-27 03:33:00,
2013-04-26 23:36:00,44.3,35.5,30.28,SSE,148,0.0,0.0,71,0.00,,---,0.00,VWS V14.00,2013-04-27 03:36:00,
2013-04-26 23:37:00,44.3,35.5,30.28,SSE,148,0.0,0.0,71,0.00,,---,0.00,VWS V14.00,2013-04-27 03:37:00,
2013-04-26 23:38:00,44.3,35.5,30.28,SSE,148,0.0,0.0,71,0.00,,---,0.00,VWS V14.00,2013-04-27 03:38:00,
2013-04-26 23:42:00,44.2,35.8,30.28,SSE,148,0.0,0.0,72,0.00,,---,0.00,VWS V14.00,2013-04-27 03:42:00,
2013-04-26 23:44:00,44.1,35.7,30.28,SSE,148,0.0,0.0,72,0.00,,---,0.00,VWS V14.00,2013-04-27 03:44:00,
2013-04-26 23:47:00,43.9,35.5,30.28,SSE,148,0.0,0.0,72,0.00,,---,0.00,VWS V14.00,2013-04-27 03:47:00,
2013-04-26 23:48:00,43.9,35.5,30.28,SSE,148,0.0,0.0,72,0.00,,---,0.00,VWS V14.00,2013-04-27 03:48:00,
2013-04-26 23:49:00,43.9,35.5,30.28,SSE,148,0.0,0.0,72,0.00,,---,0.00,VWS V14.00,2013-04-27 03:49:00,
2013-04-26 23:52:00,43.8,35.4,30.28,SSE,148,0.0,0.0,72,0.00,,---,0.00,VWS V14.00,2013-04-27 03:52:00,
2013-04-26 23:53:00,43.8,35.4,30.28,SSE,148,0.0,0.0,72,0.00,,---,0.00,VWS V14.00,2013-04-27 03:53:00,
2013-04-26 23:54:00,43.6,35.2,30.28,SSE,148,0.0,0.0,72,0.00,,---,0.00,VWS V14.00,2013-04-27 03:54:00,
2013-04-26 23:57:00,43.5,35.1,30.28,SSE,148,0.0,0.0,72,0.00,,---,0.00,VWS V14.00,2013-04-27 03:57:00,
2013-04-26 23:58:00,43.5,35.1,30.28,SSE,148,0.0,0.0,72,0.00,,---,0.00,VWS V14.00,2013-04-27 03:58:00,
2013-04-26 23:59:00,43.3,34.9,30.28,SSE,148,0.0,0.0,72,0.00,,---,0.00,VWS V14.00,2013-04-27 03:59:00,